Time,TemperatureF,DewpointF,PressureIn,WindDirection,WindDirectionDegrees,WindSpeedMPH,WindSpeedGustMPH,Humidity,HourlyPrecipIn,Conditions,Clouds,dailyrainin,SolarRadiationWatts/m^2,SoftwareType,DateUTC
2013-04-21 00:01:00,26.0,19.5,30.47,SSW,208,0.0,8.0,76,0.00,,,0.00,0,Wunderground v.1.15,2013-04-21 04:01:00,
2013-04-21 00:02:00,26.0,19.5,30.48,SSW,208,0.0,8.0,76,0.00,,,0.00,0,Wunderground v.1.15,2013-04-21 04:02:00,
2013-04-21 00:03:00,26.0,19.5,30.48,SSW,208,0.0,8.0,76,0.00,,,0.00,0,Wunderground v.1.15,2013-04-21 04:03:00,
2013-04-21 00:04:00,25.9,19.4,30.48,SSW,208,0.0,8.0,76,0.00,,,0.00,0,Wunderground v.1.15,2013-04-21 04:04:00,
2013-04-21 00:09:00,25.7,19.2,30.48,SSW,208,0.0,8.0,76,0.00,,,0.00,0,Wunderground v.1.15,2013-04-21 04:09:00,
2013-04-21 00:10:00,25.6,19.1,30.48,SSW,208,0.0,8.0,76,0.00,,,0.00,0,Wunderground v.1.15,2013-04-21 04:10:00,
2013-04-21 00:11:00,25.6,19.4,30.48,SSW,208,0.0,8.0,77,0.00,,,0.00,0,Wunderground v.1.15,2013-04-21 04:11:00,
2013-04-21 00:13:00,25.5,19.3,30.48,SSW,208,0.0,8.0,77,0.00,,,0.00,0,Wunderground v.1.15,2013-04-21 04:13:00,
2013-04-21 00:15:00,25.4,19.2,30.48,SSW,208,0.0,8.0,77,0.00,,,0.00,0,Wunderground v.1.15,2013-04-21 04:15:00,
2013-04-21 00:16:00,25.4,19.5,30.48,SSW,208,0.0,8.0,78,0.00,,,0.00,0,Wunderground v.1.15,2013-04-21 04:16:00,
2013-04-21 00:18:00,25.4,19.5,30.48,SSW,208,0.0,8.0,78,0.00,,,0.00,0,Wunderground v.1.15,2013-04-21 04:18:00,
2013-04-21 00:21:00,25.4,19.5,30.48,SSW,208,0.0,8.0,78,0.00,,,0.00,0,Wunderground v.1.15,2013-04-21 04:21:00,
2013-04-21 00:23:00,25.4,19.5,30.48,SSW,209,0.0,8.0,78,0.00,,,0.00,0,Wunderground v.1.15,2013-04-21 04:23:00,
2013-04-21 00:24:00,25.5,19.6,30.48,SSW,209,0.0,8.0,78,0.00,,,0.00,0,Wunderground v.1.15,2013-04-21 04:24:00,
2013-04-21 00:25:00,25.5,19.6,30.48,SSW,209,0.0,8.0,78,0.00,,,0.00,0,Wunderground v.1.15,2013-04-21 04:25:00,
2013-04-21 00:27:00,25.5,19.6,30.49,SSW,209,0.0,8.0,78,0.00,,,0.00,0,Wunderground v.1.15,2013-04-21 04:27:00,
2013-04-21 00:31:00,25.4,19.5,30.49,SSW,209,0.0,8.0,78,0.00,,,0.00,0,Wunderground v.1.15,2013-04-21 04:31:00,
2013-04-21 00:32:00,25.4,19.5,30.49,SSW,209,0.0,8.0,78,0.00,,,0.00,0,Wunderground v.1.15,2013-04-21 04:32:00,
2013-04-21 00:33:00,25.4,19.5,30.49,SSW,209,0.0,8.0,78,0.00,,,0.00,0,Wunderground v.1.15,2013-04-21 04:33:00,
2013-04-21 00:34:00,25.3,19.4,30.49,SSW,209,0.0,8.0,78,0.00,,,0.00,0,Wunderground v.1.15,2013-04-21 04:34:00,
2013-04-21 00:35:00,25.3,19.4,30.49,NW,313,0.0,8.0,78,0.00,,,0.00,0,Wunderground v.1.15,2013-04-21 04:35:00,
2013-04-21 00:39:00,25.1,19.2,30.49,NW,313,0.0,8.0,78,0.00,,,0.00,0,Wunderground v.1.15,2013-04-21 04:39:00,
2013-04-21 00:40:00,25.0,19.1,30.49,NW,313,0.0,8.0,78,0.00,,,0.00,0,Wunderground v.1.15,2013-04-21 04:40:00,
2013-04-21 00:41:00,24.9,19.3,30.49,NW,313,0.0,8.0,79,0.00,,,0.00,0,Wunderground v.1.15,2013-04-21 04:41:00,
2013-04-21 00:42:00,24.9,19.3,30.49,NW,313,0.0,8.0,79,0.00,,,0.00,0,Wunderground v.1.15,2013-04-21 04:42:00,
2013-04-21 00:45:00,24.7,19.1,30.49,NW,313,0.0,8.0,79,0.00,,,0.00,0,Wunderground v.1.15,2013-04-21 04:45:00,
2013-04-21 00:49:00,24.6,19.3,30.49,NW,313,0.0,8.0,80,0.00,,,0.00,0,Wunderground v.1.15,2013-04-21 04:49:00,
2013-04-21 00:50:00,24.5,19.2,30.49,NW,313,0.0,8.0,80,0.00,,,0.00,0,Wunderground v.1.15,2013-04-21 04:50:00,
2013-04-21 00:54:00,24.3,19.0,30.49,NW,313,0.0,8.0,80,0.00,,,0.00,0,Wunderground v.1.15,2013-04-21 04:54:00,
2013-04-21 00:56:00,24.2,18.9,30.49,NW,313,0.0,8.0,80,0.00,,,0.00,0,Wunderground v.1.15,2013-04-21 04:56:00,
2013-04-21 00:57:00,24.2,19.2,30.49,NW,313,0.0,8.0,81,0.00,,,0.00,0,Wunderground v.1.15,2013-04-21 04:57:00,
2013-04-21 01:01:00,23.9,18.9,30.49,NW,313,0.0,8.0,81,0.00,,,0.00,0,Wunderground v.1.15,2013-04-21 05:01:00,
2013-04-21 01:02:00,23.9,18.9,30.49,NW,313,0.0,8.0,81,0.00,,,0.00,0,Wunderground v.1.15,2013-04-21 05:02:00,
2013-04-21 01:03:00,23.8,18.8,30.49,NW,313,0.0,8.0,81,0.00,,,0.00,0,Wunderground v.1.15,2013-04-21 05:03:00,
2013-04-21 01:07:00,23.8,19.1,30.49,NW,313,0.0,8.0,82,0.00,,,0.00,0,Wunderground v.1.15,2013-04-21 05:07:00,
2013-04-21 01:08:00,23.7,19.0,30.50,NW,313,0.0,8.0,82,0.00,,,0.00,0,Wunderground v.1.15,2013-04-21 05:08:00,
2013-04-21 01:11:00,23.7,19.0,30.49,NW,313,0.0,8.0,82,0.00,,,0.00,0,Wunderground v.1.15,2013-04-21 05:11:00,
2013-04-21 01:14:00,23.6,18.9,30.49,NW,313,0.0,8.0,82,0.00,,,0.00,0,Wunderground v.1.15,2013-04-21 05:14:00,
2013-04-21 01:20:00,23.5,19.1,30.50,NW,313,0.0,8.0,83,0.00,,,0.00,0,Wunderground v.1.15,2013-04-21 05:20:00,
2013-04-21 01:21:00,23.4,19.0,30.50,NW,313,0.0,8.0,83,0.00,,,0.00,0,Wunderground v.1.15,2013-04-21 05:21:00,
2013-04-21 01:22:00,23.4,19.0,30.50,NW,313,0.0,8.0,83,0.00,,,0.00,0,Wunderground v.1.15,2013-04-21 05:22:00,
2013-04-21 01:25:00,23.4,19.0,30.50,NW,313,0.0,8.0,83,0.00,,,0.00,0,Wunderground v.1.15,2013-04-21 05:25:00,
2013-04-21 01:26:00,23.3,18.6,30.50,NW,313,0.0,8.0,82,0.00,,,0.00,0,Wunderground v.1.15,2013-04-21 05:26:00,
2013-04-21 01:28:00,23.3,18.6,30.50,NW,313,0.0,8.0,82,0.00,,,0.00,0,Wunderground v.1.15,2013-04-21 05:28:00,
2013-04-21 01:29:00,23.2,18.5,30.50,NW,313,0.0,8.0,82,0.00,,,0.00,0,Wunderground v.1.15,2013-04-21 05:29:00,
2013-04-21 01:31:00,23.2,18.5,30.50,NW,313,0.0,8.0,82,0.00,,,0.00,0,Wunderground v.1.15,2013-04-21 05:31:00,
2013-04-21 01:32:00,23.2,18.5,30.50,NW,313,0.0,8.0,82,0.00,,,0.00,0,Wunderground v.1.15,2013-04-21 05:32:00,
2013-04-21 01:34:00,23.1,18.7,30.50,NW,313,0.0,8.0,83,0.00,,,0.00,0,Wunderground v.1.15,2013-04-21 05:34:00,
2013-04-21 01:37:00,23.0,18.6,30.50,NW,313,0.0,8.0,83,0.00,,,0.00,0,Wunderground v.1.15,2013-04-21 05:37:00,
2013-04-21 01:38:00,23.0,18.6,30.50,NW,313,0.0,8.0,83,0.00,,,0.00,0,Wunderground v.1.15,2013-04-21 05:38:00,
2013-04-21 01:39:00,23.0,18.6,30.50,NW,313,0.0,8.0,83,0.00,,,0.00,0,Wunderground v.1.15,2013-04-21 05:39:00,
2013-04-21 01:41:00,22.9,18.5,30.51,NW,313,0.0,8.0,83,0.00,,,0.00,0,Wunderground v.1.15,2013-04-21 05:41:00,
2013-04-21 01:45:00,22.8,18.4,30.51,NW,313,0.0,8.0,83,0.00,,,0.00,0,Wunderground v.1.15,2013-04-21 05:45:00,
2013-04-21 01:49:00,22.7,18.6,30.51,NW,313,0.0,8.0,84,0.00,,,0.00,0,Wunderground v.1.15,2013-04-21 05:49:00,
2013-04-21 01:51:00,22.7,18.6,30.51,NW,313,0.0,8.0,84,0.00,,,0.00,0,Wunderground v.1.15,2013-04-21 05:51:00,
2013-04-21 01:53:00,22.7,18.6,30.51,NW,313,0.0,8.0,84,0.00,,,0.00,0,Wunderground v.1.15,2013-04-21 05:53:00,
2013-04-21 01:54:00,22.6,18.5,30.51,NW,313,0.0,8.0,84,0.00,,,0.00,0,Wunderground v.1.15,2013-04-21 05:54:00,
2013-04-21 01:57:00,22.6,18.5,30.51,NW,313,0.0,8.0,84,0.00,,,0.00,0,Wunderground v.1.15,2013-04-21 05:57:00,
2013-04-21 01:58:00,22.6,18.5,30.51,NW,313,0.0,8.0,84,0.00,,,0.00,0,Wunderground v.1.15,2013-04-21 05:58:00,
2013-04-21 02:00:00,22.6,18.5,30.51,NW,313,0.0,8.0,84,0.00,,,0.00,0,Wunderground v.1.15,2013-04-21 06:00:00,
2013-04-21 02:02:00,22.5,18.4,30.51,NW,313,0.0,8.0,84,0.00,,,0.00,0,Wunderground v.1.15,2013-04-21 06:02:00,
2013-04-21 02:06:00,22.4,18.3,30.51,NW,313,0.0,8.0,84,0.00,,,0.00,0,Wunderground v.1.15,2013-04-21 06:06:00,
2013-04-21 02:07:00,22.4,18.3,30.51,NW,313,0.0,8.0,84,0.00,,,0.00,0,Wunderground v.1.15,2013-04-21 06:07:00,
2013-04-21 02:09:00,22.3,18.2,30.51,NW,313,0.0,8.0,84,0.00,,,0.00,0,Wunderground v.1.15,2013-04-21 06:09:00,
2013-04-21 02:11:00,22.2,18.1,30.51,NW,313,0.0,8.0,84,0.00,,,0.00,0,Wunderground v.1.15,2013-04-21 06:11:00,
2013-04-21 02:12:00,22.2,18.1,30.51,NW,313,0.0,8.0,84,0.00,,,0.00,0,Wunderground v.1.15,2013-04-21 06:12:00,
2013-04-21 02:13:00,22.1,18.0,30.51,NW,313,0.0,8.0,84,0.00,,,0.00,0,Wunderground v.1.15,2013-04-21 06:13:00,
2013-04-21 02:16:00,22.0,17.9,30.51,NW,313,0.0,8.0,84,0.00,,,0.00,0,Wunderground v.1.15,2013-04-21 06:16:00,
2013-04-21 02:18:00,21.9,17.8,30.51,NW,313,0.0,8.0,84,0.00,,,0.00,0,Wunderground v.1.15,2013-04-21 06:18:00,
2013-04-21 02:19:00,21.9,17.8,30.52,NW,313,0.0,8.0,84,0.00,,,0.00,0,Wunderground v.1.15,2013-04-21 06:19:00,
2013-04-21 02:23:00,21.6,17.5,30.52,NW,313,0.0,8.0,84,0.00,,,0.00,0,Wunderground v.1.15,2013-04-21 06:23:00,
2013-04-21 02:24:00,21.6,17.5,30.52,NW,313,0.0,8.0,84,0.00,,,0.00,0,Wunderground v.1.15,2013-04-21 06:24:00,
2013-04-21 02:25:00,21.6,17.5,30.52,NW,313,0.0,8.0,84,0.00,,,0.00,0,Wunderground v.1.15,2013-04-21 06:25:00,
2013-04-21 02:26:00,21.6,17.5,30.52,NW,313,0.0,8.0,84,0.00,,,0.00,0,Wunderground v.1.15,2013-04-21 06:26:00,
2013-04-21 02:28:00,21.5,17.7,30.52,NW,313,0.0,8.0,85,0.00,,,0.00,0,Wunderground v.1.15,2013-04-21 06:28:00,
2013-04-21 02:29:00,21.4,17.6,30.52,NW,313,0.0,8.0,85,0.00,,,0.00,0,Wunderground v.1.15,2013-04-21 06:29:00,
2013-04-21 02:31:00,21.4,17.6,30.52,NW,313,0.0,8.0,85,0.00,,,0.00,0,Wunderground v.1.15,2013-04-21 06:31:00,
2013-04-21 02:34:00,21.3,17.5,30.52,NW,313,0.0,8.0,85,0.00,,,0.00,0,Wunderground v.1.15,2013-04-21 06:34:00,
2013-04-21 02:36:00,21.2,17.4,30.52,NW,313,0.0,8.0,85,0.00,,,0.00,0,Wunderground v.1.15,2013-04-21 06:36:00,
2013-04-21 02:40:00,21.1,17.6,30.52,NW,313,0.0,8.0,86,0.00,,,0.00,0,Wunderground v.1.15,2013-04-21 06:40:00,
2013-04-21 02:42:00,21.1,17.6,30.53,NW,313,0.0,8.0,86,0.00,,,0.00,0,Wunderground v.1.15,2013-04-21 06:42:00,
2013-04-21 02:43:00,21.1,17.6,30.53,NW,313,0.0,8.0,86,0.00,,,0.00,0,Wunderground v.1.15,2013-04-21 06:43:00,
2013-04-21 02:47:00,21.0,17.5,30.53,NW,313,0.0,8.0,86,0.00,,,0.00,0,Wunderground v.1.15,2013-04-21 06:47:00,
2013-04-21 02:48:00,21.0,17.5,30.53,NW,313,0.0,8.0,86,0.00,,,0.00,0,Wunderground v.1.15,2013-04-21 06:48:00,
2013-04-21 02:53:00,20.9,17.4,30.53,NW,313,0.0,8.0,86,0.00,,,0.00,0,Wunderground v.1.15,2013-04-21 06:53:00,
2013-04-21 02:55:00,20.9,17.6,30.53,NW,313,0.0,8.0,87,0.00,,,0.00,0,Wunderground v.1.15,2013-04-21 06:55:00,
2013-04-21 02:56:00,20.9,17.6,30.54,NW,313,0.0,8.0,87,0.00,,,0.00,0,Wunderground v.1.15,2013-04-21 06:56:00,
2013-04-21 02:58:00,20.8,17.5,30.53,NW,313,0.0,8.0,87,0.00,,,0.00,0,Wunderground v.1.15,2013-04-21 06:58:00,
2013-04-21 02:59:00,20.8,17.5,30.54,NW,313,0.0,8.0,87,0.00,,,0.00,0,Wunderground v.1.15,2013-04-21 06:59:00,
2013-04-21 03:00:00,20.8,17.5,30.54,NW,313,0.0,8.0,87,0.00,,,0.00,0,Wunderground v.1.15,2013-04-21 07:00:00,
2013-04-21 03:03:00,20.8,17.5,30.53,NW,313,0.0,8.0,87,0.00,,,0.00,0,Wunderground v.1.15,2013-04-21 07:03:00,
2013-04-21 03:04:00,20.8,17.5,30.53,NW,313,0.0,8.0,87,0.00,,,0.00,0,Wunderground v.1.15,2013-04-21 07:04:00,
2013-04-21 03:06:00,20.8,17.8,30.53,NW,313,0.0,8.0,88,0.00,,,0.00,0,Wunderground v.1.15,2013-04-21 07:06:00,
2013-04-21 03:07:00,20.8,17.8,30.53,NW,313,0.0,8.0,88,0.00,,,0.00,0,Wunderground v.1.15,2013-04-21 07:07:00,
2013-04-21 03:08:00,20.8,17.8,30.53,NW,313,0.0,8.0,88,0.00,,,0.00,0,Wunderground v.1.15,2013-04-21 07:08:00,
2013-04-21 03:09:00,20.8,17.8,30.53,NW,313,0.0,8.0,88,0.00,,,0.00,0,Wunderground v.1.15,2013-04-21 07:09:00,
2013-04-21 03:13:00,20.9,17.9,30.54,NW,313,0.0,8.0,88,0.00,,,0.00,0,Wunderground v.1.15,2013-04-21 07:13:00,
2013-04-21 03:14:00,20.9,17.9,30.53,NW,313,0.0,8.0,88,0.00,,,0.00,0,Wunderground v.1.15,2013-04-21 07:14:00,
2013-04-21 03:16:00,20.9,17.9,30.54,NW,313,0.0,8.0,88,0.00,,,0.00,0,Wunderground v.1.15,2013-04-21 07:16:00,
2013-04-21 03:17:00,20.9,17.9,30.54,NW,313,0.0,8.0,88,0.00,,,0.00,0,Wunderground v.1.15,2013-04-21 07:17:00,
2013-04-21 03:21:00,20.8,17.8,30.54,NW,313,0.0,8.0,88,0.00,,,0.00,0,Wunderground v.1.15,2013-04-21 07:21:00,
2013-04-21 03:23:00,20.8,18.1,30.54,NW,313,0.0,8.0,89,0.00,,,0.00,0,Wunderground v.1.15,2013-04-21 07:23:00,
2013-04-21 03:24:00,20.8,18.1,30.54,NW,313,0.0,8.0,89,0.00,,,0.00,0,Wunderground v.1.15,2013-04-21 07:24:00,
2013-04-21 03:25:00,20.8,18.1,30.54,NW,313,0.0,8.0,89,0.00,,,0.00,0,Wunderground v.1.15,2013-04-21 07:25:00,
2013-04-21 03:27:00,20.8,18.1,30.54,NW,313,0.0,8.0,89,0.00,,,0.00,0,Wunderground v.1.15,2013-04-21 07:27:00,
2013-04-21 03:30:00,20.7,18.0,30.54,NW,313,0.0,8.0,89,0.00,,,0.00,0,Wunderground v.1.15,2013-04-21 07:30:00,
2013-04-21 03:34:00,20.6,17.9,30.54,NW,313,0.0,8.0,89,0.00,,,0.00,0,Wunderground v.1.15,2013-04-21 07:34:00,
2013-04-21 03:36:00,20.6,17.6,30.54,NW,313,0.0,8.0,88,0.00,,,0.00,0,Wunderground v.1.15,2013-04-21 07:36:00,
2013-04-21 03:37:00,20.6,17.6,30.54,NW,313,0.0,8.0,88,0.00,,,0.00,0,Wunderground v.1.15,2013-04-21 07:37:00,
2013-04-21 03:40:00,20.5,17.5,30.55,NW,313,0.0,8.0,88,0.00,,,0.00,0,Wunderground v.1.15,2013-04-21 07:40:00,
2013-04-21 03:41:00,20.5,17.5,30.55,NW,313,0.0,8.0,88,0.00,,,0.00,0,Wunderground v.1.15,2013-04-21 07:41:00,
2013-04-21 03:42:00,20.5,17.8,30.55,NW,313,0.0,8.0,89,0.00,,,0.00,0,Wunderground v.1.15,2013-04-21 07:42:00,
2013-04-21 03:45:00,20.4,17.7,30.55,NW,313,0.0,8.0,89,0.00,,,0.00,0,Wunderground v.1.15,2013-04-21 07:45:00,
2013-04-21 03:50:00,20.3,17.6,30.55,NW,313,0.0,8.0,89,0.00,,,0.00,0,Wunderground v.1.15,2013-04-21 07:50:00,
2013-04-21 03:51:00,20.3,17.6,30.55,NW,313,0.0,8.0,89,0.00,,,0.00,0,Wunderground v.1.15,2013-04-21 07:51:00,
2013-04-21 03:53:00,20.4,17.7,30.55,NW,313,0.0,8.0,89,0.00,,,0.00,0,Wunderground v.1.15,2013-04-21 07:53:00,
2013-04-21 03:55:00,20.3,17.6,30.55,NW,313,0.0,8.0,89,0.00,,,0.00,0,Wunderground v.1.15,2013-04-21 07:55:00,
2013-04-21 03:56:00,20.3,17.6,30.55,NW,313,0.0,8.0,89,0.00,,,0.00,0,Wunderground v.1.15,2013-04-21 07:56:00,
2013-04-21 03:57:00,20.4,17.7,30.55,NW,313,0.0,8.0,89,0.00,,,0.00,0,Wunderground v.1.15,2013-04-21 07:57:00,
2013-04-21 04:02:00,20.4,17.7,30.55,NW,313,0.0,8.0,89,0.00,,,0.00,0,Wunderground v.1.15,2013-04-21 08:02:00,
2013-04-21 04:03:00,20.4,17.7,30.55,NW,313,0.0,8.0,89,0.00,,,0.00,0,Wunderground v.1.15,2013-04-21 08:03:00,
2013-04-21 04:05:00,20.4,17.7,30.55,NW,313,0.0,8.0,89,0.00,,,0.00,0,Wunderground v.1.15,2013-04-21 08:05:00,
2013-04-21 04:06:00,20.4,17.7,30.56,NW,313,0.0,8.0,89,0.00,,,0.00,0,Wunderground v.1.15,2013-04-21 08:06:00,
2013-04-21 04:07:00,20.3,17.6,30.55,NW,313,0.0,8.0,89,0.00,,,0.00,0,Wunderground v.1.15,2013-04-21 08:07:00,
2013-04-21 04:10:00,20.3,17.6,30.56,NW,313,0.0,8.0,89,0.00,,,0.00,0,Wunderground v.1.15,2013-04-21 08:10:00,
2013-04-21 04:12:00,20.3,17.6,30.56,NW,313,0.0,8.0,89,0.00,,,0.00,0,Wunderground v.1.15,2013-04-21 08:12:00,
2013-04-21 04:13:00,20.3,17.6,30.56,NW,313,0.0,8.0,89,0.00,,,0.00,0,Wunderground v.1.15,2013-04-21 08:13:00,
2013-04-21 04:14:00,20.3,17.6,30.56,NW,313,0.0,8.0,89,0.00,,,0.00,0,Wunderground v.1.15,2013-04-21 08:14:00,
2013-04-21 04:15:00,20.3,17.6,30.56,NW,313,0.0,8.0,89,0.00,,,0.00,0,Wunderground v.1.15,2013-04-21 08:15:00,
2013-04-21 04:16:00,20.2,17.5,30.56,NW,313,0.0,8.0,89,0.00,,,0.00,0,Wunderground v.1.15,2013-04-21 08:16:00,
2013-04-21 04:20:00,20.2,17.5,30.56,NW,313,0.0,8.0,89,0.00,,,0.00,0,Wunderground v.1.15,2013-04-21 08:20:00,
2013-04-21 04:21:00,20.2,17.5,30.56,NW,313,0.0,8.0,89,0.00,,,0.00,0,Wunderground v.1.15,2013-04-21 08:21:00,
2013-04-21 04:22:00,20.2,17.5,30.56,NW,313,0.0,8.0,89,0.00,,,0.00,0,Wunderground v.1.15,2013-04-21 08:22:00,
2013-04-21 04:23:00,20.2,17.5,30.56,NW,313,0.0,8.0,89,0.00,,,0.00,0,Wunderground v.1.15,2013-04-21 08:23:00,
2013-04-21 04:24:00,20.2,17.5,30.56,NW,313,0.0,8.0,89,0.00,,,0.00,0,Wunderground v.1.15,2013-04-21 08:24:00,
2013-04-21 04:28:00,20.1,17.4,30.56,NW,313,0.0,8.0,89,0.00,,,0.00,0,Wunderground v.1.15,2013-04-21 08:28:00,
2013-04-21 04:29:00,20.1,17.4,30.56,NW,313,0.0,8.0,89,0.00,,,0.00,0,Wunderground v.1.15,2013-04-21 08:29:00,
2013-04-21 04:30:00,20.1,17.4,30.56,NW,313,0.0,8.0,89,0.00,,,0.00,0,Wunderground v.1.15,2013-04-21 08:30:00,
2013-04-21 04:31:00,20.0,17.3,30.56,NW,313,0.0,8.0,89,0.00,,,0.00,0,Wunderground v.1.15,2013-04-21 08:31:00,
2013-04-21 04:34:00,20.0,17.3,30.56,NW,313,0.0,8.0,89,0.00,,,0.00,0,Wunderground v.1.15,2013-04-21 08:34:00,
2013-04-21 04:35:00,20.0,17.5,30.56,NW,313,0.0,8.0,90,0.00,,,0.00,0,Wunderground v.1.15,2013-04-21 08:35:00,
2013-04-21 04:36:00,20.0,17.5,30.56,NW,313,0.0,8.0,90,0.00,,,0.00,0,Wunderground v.1.15,2013-04-21 08:36:00,
2013-04-21 04:40:00,20.0,17.5,30.56,NW,313,0.0,8.0,90,0.00,,,0.00,0,Wunderground v.1.15,2013-04-21 08:40:00,
2013-04-21 04:42:00,19.9,17.4,30.56,NW,313,0.0,8.0,90,0.00,,,0.00,0,Wunderground v.1.15,2013-04-21 08:42:00,
2013-04-21 04:43:00,19.9,17.4,30.56,NW,313,0.0,8.0,90,0.00,,,0.00,0,Wunderground v.1.15,2013-04-21 08:43:00,
2013-04-21 04:46:00,19.9,17.4,30.56,NW,313,0.0,8.0,90,0.00,,,0.00,0,Wunderground v.1.15,2013-04-21 08:46:00,
2013-04-21 04:47:00,20.0,17.5,30.56,NW,313,0.0,8.0,90,0.00,,,0.00,0,Wunderground v.1.15,2013-04-21 08:47:00,
2013-04-21 04:49:00,19.9,17.4,30.56,NW,313,0.0,8.0,90,0.00,,,0.00,0,Wunderground v.1.15,2013-04-21 08:49:00,
2013-04-21 04:51:00,20.0,17.5,30.56,NW,313,0.0,8.0,90,0.00,,,0.00,0,Wunderground v.1.15,2013-04-21 08:51:00,
2013-04-21 04:52:00,19.9,17.4,30.56,NW,313,0.0,8.0,90,0.00,,,0.00,0,Wunderground v.1.15,2013-04-21 08:52:00,
2013-04-21 04:54:00,20.0,17.5,30.56,NW,313,0.0,8.0,90,0.00,,,0.00,0,Wunderground v.1.15,2013-04-21 08:54:00,
2013-04-21 04:56:00,20.0,17.5,30.56,NW,313,0.0,8.0,90,0.00,,,0.00,0,Wunderground v.1.15,2013-04-21 08:56:00,
2013-04-21 04:58:00,19.9,17.4,30.56,NW,313,0.0,8.0,90,0.00,,,0.00,0,Wunderground v.1.15,2013-04-21 08:58:00,
2013-04-21 04:59:00,19.9,17.4,30.56,NW,313,0.0,8.0,90,0.00,,,0.00,0,Wunderground v.1.15,2013-04-21 08:59:00,
2013-04-21 05:02:00,19.9,17.4,30.56,NW,313,0.0,8.0,90,0.00,,,0.00,0,Wunderground v.1.15,2013-04-21 09:02:00,
2013-04-21 05:04:00,19.9,17.4,30.57,NW,313,0.0,8.0,90,0.00,,,0.00,0,Wunderground v.1.15,2013-04-21 09:04:00,
2013-04-21 05:05:00,19.9,17.4,30.56,NW,313,0.0,8.0,90,0.00,,,0.00,0,Wunderground v.1.15,2013-04-21 09:05:00,
2013-04-21 05:06:00,19.9,17.4,30.57,NW,313,0.0,8.0,90,0.00,,,0.00,0,Wunderground v.1.15,2013-04-21 09:06:00,
2013-04-21 05:08:00,19.9,17.4,30.57,NW,313,0.0,8.0,90,0.00,,,0.00,0,Wunderground v.1.15,2013-04-21 09:08:00,
2013-04-21 05:10:00,19.9,17.4,30.57,NW,313,0.0,8.0,90,0.00,,,0.00,0,Wunderground v.1.15,2013-04-21 09:10:00,
2013-04-21 05:11:00,19.9,17.4,30.57,NW,313,0.0,8.0,90,0.00,,,0.00,0,Wunderground v.1.15,2013-04-21 09:11:00,
2013-04-21 05:16:00,19.8,17.3,30.57,NW,313,0.0,8.0,90,0.00,,,0.00,0,Wunderground v.1.15,2013-04-21 09:16:00,
2013-04-21 05:19:00,19.7,17.2,30.57,NW,313,0.0,8.0,90,0.00,,,0.00,0,Wunderground v.1.15,2013-04-21 09:19:00,
2013-04-21 05:20:00,19.7,17.2,30.57,NW,313,0.0,8.0,90,0.00,,,0.00,0,Wunderground v.1.15,2013-04-21 09:20:00,
2013-04-21 05:22:00,19.7,17.2,30.57,NW,313,0.0,8.0,90,0.00,,,0.00,0,Wunderground v.1.15,2013-04-21 09:22:00,
2013-04-21 05:26:00,19.6,17.1,30.57,NW,313,0.0,8.0,90,0.00,,,0.00,0,Wunderground v.1.15,2013-04-21 09:26:00,
2013-04-21 05:29:00,19.6,17.1,30.57,NW,313,0.0,8.0,90,0.00,,,0.00,0,Wunderground v.1.15,2013-04-21 09:29:00,
2013-04-21 05:31:00,19.5,17.0,30.57,NW,313,0.0,8.0,90,0.00,,,0.00,0,Wunderground v.1.15,2013-04-21 09:31:00,
2013-04-21 05:32:00,19.5,17.0,30.57,NW,313,0.0,8.0,90,0.00,,,0.00,0,Wunderground v.1.15,2013-04-21 09:32:00,
2013-04-21 05:36:00,19.5,17.0,30.57,NW,313,0.0,8.0,90,0.00,,,0.00,0,Wunderground v.1.15,2013-04-21 09:36:00,
2013-04-21 05:37:00,19.5,17.0,30.58,NW,313,0.0,8.0,90,0.00,,,0.00,0,Wunderground v.1.15,2013-04-21 09:37:00,
2013-04-21 05:38:00,19.5,17.0,30.58,NW,313,0.0,8.0,90,0.00,,,0.00,0,Wunderground v.1.15,2013-04-21 09:38:00,
2013-04-21 05:42:00,19.5,17.0,30.58,NW,313,0.0,8.0,90,0.00,,,0.00,0,Wunderground v.1.15,2013-04-21 09:42:00,
2013-04-21 05:43:00,19.5,17.0,30.58,NW,313,0.0,8.0,90,0.00,,,0.00,0,Wunderground v.1.15,2013-04-21 09:43:00,
2013-04-21 05:46:00,19.5,17.0,30.58,NW,313,0.0,8.0,90,0.00,,,0.00,0,Wunderground v.1.15,2013-04-21 09:46:00,
2013-04-21 05:49:00,19.6,17.1,30.58,NW,313,0.0,8.0,90,0.00,,,0.00,0,Wunderground v.1.15,2013-04-21 09:49:00,
2013-04-21 05:52:00,19.6,17.1,30.58,NW,313,0.0,8.0,90,0.00,,,0.00,0,Wunderground v.1.15,2013-04-21 09:52:00,
2013-04-21 05:53:00,19.6,17.1,30.58,NW,313,0.0,8.0,90,0.00,,,0.00,0,Wunderground v.1.15,2013-04-21 09:53:00,
2013-04-21 05:55:00,19.6,17.1,30.58,NW,313,0.0,8.0,90,0.00,,,0.00,0,Wunderground v.1.15,2013-04-21 09:55:00,
2013-04-21 05:58:00,19.6,17.1,30.58,NW,313,0.0,8.0,90,0.00,,,0.00,0,Wunderground v.1.15,2013-04-21 09:58:00,
2013-04-21 06:01:00,19.6,17.1,30.58,NW,313,0.0,8.0,90,0.00,,,0.00,0,Wunderground v.1.15,2013-04-21 10:01:00,
2013-04-21 06:02:00,19.6,17.1,30.58,NW,313,0.0,8.0,90,0.00,,,0.00,0,Wunderground v.1.15,2013-04-21 10:02:00,
2013-04-21 06:04:00,19.6,17.1,30.58,NW,313,0.0,8.0,90,0.00,,,0.00,0,Wunderground v.1.15,2013-04-21 10:04:00,
2013-04-21 06:05:00,19.6,17.1,30.59,NW,313,0.0,8.0,90,0.00,,,0.00,0,Wunderground v.1.15,2013-04-21 10:05:00,
2013-04-21 06:07:00,19.5,17.0,30.58,NW,313,0.0,8.0,90,0.00,,,0.00,0,Wunderground v.1.15,2013-04-21 10:07:00,
2013-04-21 06:12:00,19.5,17.0,30.59,NW,313,0.0,8.0,90,0.00,,,0.00,0,Wunderground v.1.15,2013-04-21 10:12:00,
2013-04-21 06:14:00,19.4,16.9,30.59,NW,313,0.0,8.0,90,0.00,,,0.00,0,Wunderground v.1.15,2013-04-21 10:14:00,
2013-04-21 06:15:00,19.4,16.9,30.59,NW,313,0.0,8.0,90,0.00,,,0.00,0,Wunderground v.1.15,2013-04-21 10:15:00,
2013-04-21 06:17:00,19.4,16.9,30.59,NW,313,0.0,8.0,90,0.00,,,0.00,0,Wunderground v.1.15,2013-04-21 10:17:00,
2013-04-21 06:18:00,19.4,16.9,30.59,NW,313,0.0,8.0,90,0.00,,,0.00,0,Wunderground v.1.15,2013-04-21 10:18:00,
2013-04-21 06:20:00,19.3,16.8,30.59,NW,313,0.0,8.0,90,0.00,,,0.00,0,Wunderground v.1.15,2013-04-21 10:20:00,
2013-04-21 06:21:00,19.4,16.9,30.59,NW,313,0.0,8.0,90,0.00,,,0.00,0,Wunderground v.1.15,2013-04-21 10:21:00,
2013-04-21 06:25:00,19.3,16.8,30.59,NW,313,0.0,8.0,90,0.00,,,0.00,0,Wunderground v.1.15,2013-04-21 10:25:00,
2013-04-21 06:26:00,19.3,16.8,30.59,NW,313,0.0,8.0,90,0.00,,,0.00,0,Wunderground v.1.15,2013-04-21 10:26:00,
2013-04-21 06:27:00,19.3,16.8,30.59,NW,313,0.0,8.0,90,0.00,,,0.00,0,Wunderground v.1.15,2013-04-21 10:27:00,
2013-04-21 06:30:00,19.2,16.7,30.59,NW,313,0.0,8.0,90,0.00,,,0.00,0,Wunderground v.1.15,2013-04-21 10:30:00,
2013-04-21 06:32:00,19.2,16.7,30.59,NW,313,0.0,8.0,90,0.00,,,0.00,0,Wunderground v.1.15,2013-04-21 10:32:00,
2013-04-21 06:34:00,19.2,16.7,30.60,NW,313,0.0,8.0,90,0.00,,,0.00,0,Wunderground v.1.15,2013-04-21 10:34:00,
2013-04-21 06:35:00,19.2,16.7,30.60,NW,313,0.0,8.0,90,0.00,,,0.00,0,Wunderground v.1.15,2013-04-21 10:35:00,
2013-04-21 06:37:00,19.2,16.7,30.60,NW,313,0.0,8.0,90,0.00,,,0.00,0,Wunderground v.1.15,2013-04-21 10:37:00,
2013-04-21 06:39:00,19.2,16.7,30.60,NW,313,0.0,8.0,90,0.00,,,0.00,0,Wunderground v.1.15,2013-04-21 10:39:00,
2013-04-21 06:42:00,19.2,16.7,30.60,NW,313,0.0,8.0,90,0.00,,,0.00,5,Wunderground v.1.15,2013-04-21 10:42:00,
2013-04-21 06:43:00,19.2,16.7,30.60,NW,313,0.0,8.0,90,0.00,,,0.00,5,Wunderground v.1.15,2013-04-21 10:43:00,
2013-04-21 06:44:00,19.2,16.7,30.60,NW,313,0.0,8.0,90,0.00,,,0.00,5,Wunderground v.1.15,2013-04-21 10:44:00,
2013-04-21 06:48:00,19.1,16.7,30.60,NW,313,0.0,8.0,90,0.00,,,0.00,7,Wunderground v.1.15,2013-04-21 10:48:00,
2013-04-21 06:49:00,19.1,16.7,30.60,NW,313,0.0,8.0,90,0.00,,,0.00,7,Wunderground v.1.15,2013-04-21 10:49:00,
2013-04-21 06:50:00,19.1,16.7,30.61,NW,313,0.0,8.0,90,0.00,,,0.00,7,Wunderground v.1.15,2013-04-21 10:50:00,
2013-04-21 06:52:00,19.1,16.7,30.61,NW,313,0.0,8.0,90,0.00,,,0.00,9,Wunderground v.1.15,2013-04-21 10:52:00,
2013-04-21 06:55:00,19.0,16.6,30.61,NW,313,0.0,8.0,90,0.00,,,0.00,9,Wunderground v.1.15,2013-04-21 10:55:00,
2013-04-21 06:56:00,19.0,16.6,30.61,NW,313,0.0,8.0,90,0.00,,,0.00,11,Wunderground v.1.15,2013-04-21 10:56:00,
2013-04-21 06:58:00,19.0,16.6,30.62,NW,313,0.0,8.0,90,0.00,,,0.00,11,Wunderground v.1.15,2013-04-21 10:58:00,
2013-04-21 06:59:00,19.0,16.6,30.62,NW,313,0.0,8.0,90,0.00,,,0.00,11,Wunderground v.1.15,2013-04-21 10:59:00,
2013-04-21 07:00:00,19.0,16.6,30.62,NW,313,0.0,8.0,90,0.00,,,0.00,11,Wunderground v.1.15,2013-04-21 11:00:00,
2013-04-21 07:02:00,19.0,16.6,30.61,NW,313,0.0,8.0,90,0.00,,,0.00,12,Wunderground v.1.15,2013-04-21 11:02:00,
2013-04-21 07:04:00,19.0,16.6,30.62,NW,313,0.0,8.0,90,0.00,,,0.00,14,Wunderground v.1.15,2013-04-21 11:04:00,
2013-04-21 07:06:00,19.0,16.6,30.62,NW,313,0.0,8.0,90,0.00,,,0.00,14,Wunderground v.1.15,2013-04-21 11:06:00,
2013-04-21 07:08:00,19.1,16.7,30.62,NW,313,0.0,8.0,90,0.00,,,0.00,16,Wunderground v.1.15,2013-04-21 11:08:00,
2013-04-21 07:09:00,19.1,16.7,30.62,NW,313,0.0,8.0,90,0.00,,,0.00,18,Wunderground v.1.15,2013-04-21 11:09:00,
2013-04-21 07:11:00,19.1,16.7,30.62,NW,313,0.0,8.0,90,0.00,,,0.00,18,Wunderground v.1.15,2013-04-21 11:11:00,
2013-04-21 07:12:00,19.1,16.7,30.62,NW,313,0.0,8.0,90,0.00,,,0.00,19,Wunderground v.1.15,2013-04-21 11:12:00,
2013-04-21 07:17:00,19.2,17.0,30.62,NW,313,0.0,8.0,91,0.00,,,0.00,25,Wunderground v.1.15,2013-04-21 11:17:00,
2013-04-21 07:19:00,19.3,16.8,30.62,NW,313,0.0,8.0,90,0.00,,,0.00,26,Wunderground v.1.15,2013-04-21 11:19:00,
2013-04-21 07:20:00,19.3,17.1,30.62,NW,313,0.0,8.0,91,0.00,,,0.00,26,Wunderground v.1.15,2013-04-21 11:20:00,
2013-04-21 07:21:00,19.4,17.2,30.62,NW,313,0.0,8.0,91,0.00,,,0.00,26,Wunderground v.1.15,2013-04-21 11:21:00,
2013-04-21 07:24:00,19.5,17.3,30.62,NW,313,0.0,8.0,91,0.00,,,0.00,37,Wunderground v.1.15,2013-04-21 11:24:00,
2013-04-21 07:25:00,19.6,17.4,30.63,NW,313,0.0,8.0,91,0.00,,,0.00,35,Wunderground v.1.15,2013-04-21 11:25:00,
2013-04-21 07:27:00,19.7,17.5,30.63,NW,313,0.0,8.0,91,0.00,,,0.00,30,Wunderground v.1.15,2013-04-21 11:27:00,
2013-04-21 07:29:00,19.8,17.6,30.63,NW,313,0.0,8.0,91,0.00,,,0.00,32,Wunderground v.1.15,2013-04-21 11:29:00,
2013-04-21 07:30:00,19.9,17.7,30.63,NW,313,0.0,8.0,91,0.00,,,0.00,32,Wunderground v.1.15,2013-04-21 11:30:00,
2013-04-21 07:33:00,20.0,17.8,30.63,NW,313,0.0,8.0,91,0.00,,,0.00,46,Wunderground v.1.15,2013-04-21 11:33:00,
2013-04-21 07:34:00,20.1,17.9,30.63,NW,313,0.0,8.0,91,0.00,,,0.00,54,Wunderground v.1.15,2013-04-21 11:34:00,
2013-04-21 07:38:00,20.4,18.2,30.63,NW,313,0.0,8.0,91,0.00,,,0.00,30,Wunderground v.1.15,2013-04-21 11:38:00,
2013-04-21 07:40:00,20.6,18.4,30.63,NW,313,0.0,8.0,91,0.00,,,0.00,30,Wunderground v.1.15,2013-04-21 11:40:00,
2013-04-21 07:41:00,20.6,18.4,30.63,NW,313,0.0,8.0,91,0.00,,,0.00,30,Wunderground v.1.15,2013-04-21 11:41:00,
2013-04-21 07:43:00,20.7,18.5,30.64,NW,313,0.0,8.0,91,0.00,,,0.00,74,Wunderground v.1.15,2013-04-21 11:43:00,
2013-04-21 07:45:00,20.9,18.7,30.63,NW,313,0.0,8.0,91,0.00,,,0.00,54,Wunderground v.1.15,2013-04-21 11:45:00,
2013-04-21 07:47:00,21.0,18.8,30.64,NW,313,0.0,8.0,91,0.00,,,0.00,51,Wunderground v.1.15,2013-04-21 11:47:00,
2013-04-21 07:49:00,21.1,18.9,30.64,NW,313,0.0,8.0,91,0.00,,,0.00,116,Wunderground v.1.15,2013-04-21 11:49:00,
2013-04-21 07:50:00,21.2,19.0,30.64,NW,313,0.0,8.0,91,0.00,,,0.00,105,Wunderground v.1.15,2013-04-21 11:50:00,
2013-04-21 07:51:00,21.3,19.1,30.64,NW,313,0.0,8.0,91,0.00,,,0.00,100,Wunderground v.1.15,2013-04-21 11:51:00,
2013-04-21 07:53:00,21.4,19.2,30.64,NW,313,0.0,8.0,91,0.00,,,0.00,76,Wunderground v.1.15,2013-04-21 11:53:00,
2013-04-21 07:56:00,21.6,19.4,30.64,NW,313,0.0,8.0,91,0.00,,,0.00,49,Wunderground v.1.15,2013-04-21 11:56:00,
2013-04-21 07:58:00,21.8,19.6,30.64,NW,313,0.0,8.0,91,0.00,,,0.00,100,Wunderground v.1.15,2013-04-21 11:58:00,
2013-04-21 07:59:00,21.8,19.6,30.64,NW,313,0.0,8.0,91,0.00,,,0.00,120,Wunderground v.1.15,2013-04-21 11:59:00,
2013-04-21 08:00:00,22.0,19.8,30.64,NW,313,0.0,8.0,91,0.00,,,0.00,120,Wunderground v.1.15,2013-04-21 12:00:00,
2013-04-21 08:02:00,22.1,19.9,30.64,NW,313,0.0,8.0,91,0.00,,,0.00,109,Wunderground v.1.15,2013-04-21 12:02:00,
2013-04-21 08:03:00,22.2,20.0,30.64,NW,313,0.0,8.0,91,0.00,,,0.00,98,Wunderground v.1.15,2013-04-21 12:03:00,
2013-04-21 08:05:00,22.4,20.2,30.64,NW,313,0.0,8.0,91,0.00,,,0.00,84,Wunderground v.1.15,2013-04-21 12:05:00,
2013-04-21 08:06:00,22.5,20.3,30.64,NW,313,0.0,8.0,91,0.00,,,0.00,84,Wunderground v.1.15,2013-04-21 12:06:00,
2013-04-21 08:09:00,22.7,20.5,30.64,NW,313,0.0,8.0,91,0.00,,,0.00,114,Wunderground v.1.15,2013-04-21 12:09:00,
2013-04-21 08:10:00,22.7,20.2,30.64,NW,313,0.0,8.0,90,0.00,,,0.00,114,Wunderground v.1.15,2013-04-21 12:10:00,
2013-04-21 08:11:00,22.8,20.3,30.64,NW,313,0.0,8.0,90,0.00,,,0.00,118,Wunderground v.1.15,2013-04-21 12:11:00,
2013-04-21 08:12:00,22.9,20.4,30.64,NW,313,0.0,8.0,90,0.00,,,0.00,118,Wunderground v.1.15,2013-04-21 12:12:00,
2013-04-21 08:15:00,23.1,20.6,30.64,NW,313,0.0,8.0,90,0.00,,,0.00,155,Wunderground v.1.15,2013-04-21 12:15:00,
2013-04-21 08:17:00,23.2,20.7,30.64,NW,313,0.0,8.0,90,0.00,,,0.00,98,Wunderground v.1.15,2013-04-21 12:17:00,
2013-04-21 08:18:00,23.3,20.8,30.64,NW,313,0.0,8.0,90,0.00,,,0.00,123,Wunderground v.1.15,2013-04-21 12:18:00,
2013-04-21 08:19:00,23.3,20.8,30.64,NW,313,0.0,8.0,90,0.00,,,0.00,163,Wunderground v.1.15,2013-04-21 12:19:00,
2013-04-21 08:20:00,23.3,20.8,30.64,NW,313,0.0,8.0,90,0.00,,,0.00,179,Wunderground v.1.15,2013-04-21 12:20:00,
2013-04-21 08:23:00,23.5,20.7,30.64,NW,313,0.0,8.0,89,0.00,,,0.00,146,Wunderground v.1.15,2013-04-21 12:23:00,
2013-04-21 08:26:00,23.8,21.0,30.64,NW,313,0.0,8.0,89,0.00,,,0.00,120,Wunderground v.1.15,2013-04-21 12:26:00,
2013-04-21 08:29:00,24.0,21.2,30.65,NW,313,0.0,8.0,89,0.00,,,0.00,104,Wunderground v.1.15,2013-04-21 12:29:00,
2013-04-21 08:30:00,24.1,21.3,30.65,NW,313,0.0,8.0,89,0.00,,,0.00,163,Wunderground v.1.15,2013-04-21 12:30:00,
2013-04-21 08:32:00,24.2,21.4,30.65,NW,313,0.0,8.0,89,0.00,,,0.00,146,Wunderground v.1.15,2013-04-21 12:32:00,
2013-04-21 08:34:00,24.3,21.5,30.65,NW,313,0.0,8.0,89,0.00,,,0.00,104,Wunderground v.1.15,2013-04-21 12:34:00,
2013-04-21 08:36:00,24.4,21.4,30.65,NW,313,0.0,8.0,88,0.00,,,0.00,81,Wunderground v.1.15,2013-04-21 12:36:00,
2013-04-21 08:38:00,24.5,21.7,30.65,NW,313,0.0,8.0,89,0.00,,,0.00,120,Wunderground v.1.15,2013-04-21 12:38:00,
2013-04-21 08:40:00,24.6,21.6,30.65,NW,313,0.0,8.0,88,0.00,,,0.00,192,Wunderground v.1.15,2013-04-21 12:40:00,
2013-04-21 08:44:00,24.8,21.8,30.65,NW,313,0.0,8.0,88,0.00,,,0.00,132,Wunderground v.1.15,2013-04-21 12:44:00,
2013-04-21 08:45:00,24.9,21.8,30.65,NW,313,0.0,8.0,88,0.00,,,0.00,132,Wunderground v.1.15,2013-04-21 12:45:00,
2013-04-21 08:47:00,25.0,21.7,30.65,NW,313,0.0,8.0,87,0.00,,,0.00,141,Wunderground v.1.15,2013-04-21 12:47:00,
2013-04-21 08:48:00,25.1,21.8,30.65,NW,313,0.0,8.0,87,0.00,,,0.00,148,Wunderground v.1.15,2013-04-21 12:48:00,
2013-04-21 08:50:00,25.2,21.9,30.65,NW,313,0.0,8.0,87,0.00,,,0.00,134,Wunderground v.1.15,2013-04-21 12:50:00,
2013-04-21 08:51:00,25.3,22.0,30.65,NW,315,0.0,8.0,87,0.00,,,0.00,130,Wunderground v.1.15,2013-04-21 12:51:00,
2013-04-21 08:54:00,25.4,21.8,30.65,NW,315,0.0,8.0,86,0.00,,,0.00,149,Wunderground v.1.15,2013-04-21 12:54:00,
2013-04-21 08:55:00,25.4,21.8,30.65,NW,315,0.0,8.0,86,0.00,,,0.00,174,Wunderground v.1.15,2013-04-21 12:55:00,
2013-04-21 08:57:00,25.6,22.0,30.65,North,350,0.0,8.0,86,0.00,,,0.00,206,Wunderground v.1.15,2013-04-21 12:57:00,
2013-04-21 08:58:00,25.6,21.7,30.65,North,350,0.0,8.0,85,0.00,,,0.00,167,Wunderground v.1.15,2013-04-21 12:58:00,
2013-04-21 09:02:00,25.8,21.9,30.65,North,350,0.0,8.0,85,0.00,,,0.00,255,Wunderground v.1.15,2013-04-21 13:02:00,
2013-04-21 09:03:00,25.8,21.9,30.65,North,350,0.0,8.0,85,0.00,,,0.00,267,Wunderground v.1.15,2013-04-21 13:03:00,
2013-04-21 09:06:00,26.1,22.2,30.65,North,350,0.0,8.0,85,0.00,,,0.00,320,Wunderground v.1.15,2013-04-21 13:06:00,
2013-04-21 09:09:00,26.3,22.4,30.65,North,350,0.0,8.0,85,0.00,,,0.00,186,Wunderground v.1.15,2013-04-21 13:09:00,
2013-04-21 09:11:00,26.5,22.3,30.65,North,349,0.0,8.0,84,0.00,,,0.00,301,Wunderground v.1.15,2013-04-21 13:11:00,
2013-04-21 09:13:00,26.6,22.4,30.65,North,360,0.0,8.0,84,0.00,,,0.00,396,Wunderground v.1.15,2013-04-21 13:13:00,
2013-04-21 09:16:00,26.9,22.4,30.65,North,350,0.0,8.0,83,0.00,,,0.00,308,Wunderground v.1.15,2013-04-21 13:16:00,
2013-04-21 09:17:00,27.0,22.8,30.65,North,350,0.0,8.0,84,0.00,,,0.00,376,Wunderground v.1.15,2013-04-21 13:17:00,
2013-04-21 09:22:00,27.4,22.6,30.65,North,349,0.0,8.0,82,0.00,,,0.00,387,Wunderground v.1.15,2013-04-21 13:22:00,
2013-04-21 09:23:00,27.5,23.0,30.65,North,349,0.0,8.0,83,0.00,,,0.00,352,Wunderground v.1.15,2013-04-21 13:23:00,
2013-04-21 09:25:00,27.6,22.8,30.65,North,360,0.0,8.0,82,0.00,,,0.00,373,Wunderground v.1.15,2013-04-21 13:25:00,
2013-04-21 09:28:00,27.8,23.0,30.65,North,360,0.0,8.0,82,0.00,,,0.00,360,Wunderground v.1.15,2013-04-21 13:28:00,
2013-04-21 09:30:00,28.0,23.2,30.65,North,360,0.0,8.0,82,0.00,,,0.00,366,Wunderground v.1.15,2013-04-21 13:30:00,
2013-04-21 09:31:00,28.1,23.3,30.65,North,360,0.0,8.0,82,0.00,,,0.00,403,Wunderground v.1.15,2013-04-21 13:31:00,
2013-04-21 09:33:00,28.2,23.1,30.65,North,360,0.0,8.0,81,0.00,,,0.00,380,Wunderground v.1.15,2013-04-21 13:33:00,
2013-04-21 09:35:00,28.3,23.2,30.65,North,360,0.0,8.0,81,0.00,,,0.00,383,Wunderground v.1.15,2013-04-21 13:35:00,
2013-04-21 09:37:00,28.3,22.9,30.65,North,5,0.0,8.0,80,0.00,,,0.00,369,Wunderground v.1.15,2013-04-21 13:37:00,
2013-04-21 09:39:00,28.3,22.9,30.65,North,5,0.0,8.0,80,0.00,,,0.00,359,Wunderground v.1.15,2013-04-21 13:39:00,
2013-04-21 09:40:00,28.3,22.9,30.65,North,5,0.0,8.0,80,0.00,,,0.00,359,Wunderground v.1.15,2013-04-21 13:40:00,
2013-04-21 09:41:00,28.3,22.9,30.65,North,5,0.0,8.0,80,0.00,,,0.00,366,Wunderground v.1.15,2013-04-21 13:41:00,
2013-04-21 09:45:00,28.3,22.6,30.65,North,5,0.0,8.0,79,0.00,,,0.00,366,Wunderground v.1.15,2013-04-21 13:45:00,
2013-04-21 09:47:00,28.3,22.9,30.65,North,5,0.0,8.0,80,0.00,,,0.00,359,Wunderground v.1.15,2013-04-21 13:47:00,
2013-04-21 09:49:00,28.4,23.0,30.65,North,5,0.0,8.0,80,0.00,,,0.00,343,Wunderground v.1.15,2013-04-21 13:49:00,
2013-04-21 09:50:00,28.4,23.0,30.65,North,5,0.0,8.0,80,0.00,,,0.00,339,Wunderground v.1.15,2013-04-21 13:50:00,
2013-04-21 09:54:00,28.5,23.1,30.65,North,5,0.0,8.0,80,0.00,,,0.00,392,Wunderground v.1.15,2013-04-21 13:54:00,
2013-04-21 09:57:00,28.7,23.0,30.65,North,5,0.0,8.0,79,0.00,,,0.00,376,Wunderground v.1.15,2013-04-21 13:57:00,
2013-04-21 09:58:00,28.7,23.0,30.65,North,5,0.0,8.0,79,0.00,,,0.00,329,Wunderground v.1.15,2013-04-21 13:58:00,
2013-04-21 09:59:00,28.8,23.1,30.65,North,5,0.0,8.0,79,0.00,,,0.00,366,Wunderground v.1.15,2013-04-21 13:59:00,
2013-04-21 10:01:00,28.9,23.2,30.65,North,360,0.0,8.0,79,0.00,,,0.00,311,Wunderground v.1.15,2013-04-21 14:01:00,
2013-04-21 10:04:00,29.1,23.7,30.65,North,360,0.0,8.0,80,0.00,,,0.00,294,Wunderground v.1.15,2013-04-21 14:04:00,
2013-04-21 10:07:00,29.3,23.6,30.65,North,355,0.0,8.0,79,0.00,,,0.00,271,Wunderground v.1.15,2013-04-21 14:07:00,
2013-04-21 10:10:00,29.3,23.3,30.65,North,360,1.0,1.0,78,0.00,,,0.00,241,Wunderground v.1.15,2013-04-21 14:10:00,
2013-04-21 10:12:00,29.4,23.1,30.65,North,360,1.0,8.0,77,0.00,,,0.00,283,Wunderground v.1.15,2013-04-21 14:12:00,
2013-04-21 10:14:00,29.4,23.1,30.65,North,360,1.0,8.0,77,0.00,,,0.00,260,Wunderground v.1.15,2013-04-21 14:14:00,
2013-04-21 10:16:00,29.6,23.3,30.65,North,360,1.0,8.0,77,0.00,,,0.00,309,Wunderground v.1.15,2013-04-21 14:16:00,
2013-04-21 10:18:00,29.7,23.4,30.65,North,360,0.0,8.0,77,0.00,,,0.00,401,Wunderground v.1.15,2013-04-21 14:18:00,
2013-04-21 10:20:00,29.8,23.5,30.66,North,360,0.0,8.0,77,0.00,,,0.00,323,Wunderground v.1.15,2013-04-21 14:20:00,
2013-04-21 10:22:00,29.9,23.3,30.66,SE,130,0.0,8.0,76,0.00,,,0.00,260,Wunderground v.1.15,2013-04-21 14:22:00,
2013-04-21 10:23:00,29.9,23.3,30.65,North,5,0.0,8.0,76,0.00,,,0.00,232,Wunderground v.1.15,2013-04-21 14:23:00,
2013-04-21 10:24:00,29.9,23.3,30.65,NE,38,0.0,8.0,76,0.00,,,0.00,253,Wunderground v.1.15,2013-04-21 14:24:00,
2013-04-21 10:25:00,29.9,23.3,30.65,North,360,0.0,8.0,76,0.00,,,0.00,288,Wunderground v.1.15,2013-04-21 14:25:00,
2013-04-21 10:28:00,30.0,23.4,30.66,North,5,1.0,8.0,76,0.00,,,0.00,425,Wunderground v.1.15,2013-04-21 14:28:00,
2013-04-21 10:30:00,30.1,23.4,30.66,North,355,1.0,8.0,76,0.00,,,0.00,432,Wunderground v.1.15,2013-04-21 14:30:00,
2013-04-21 10:31:00,30.1,23.4,30.66,North,355,1.0,8.0,76,0.00,,,0.00,418,Wunderground v.1.15,2013-04-21 14:31:00,
2013-04-21 10:35:00,30.3,23.3,30.66,NNE,12,1.0,8.0,75,0.00,,,0.00,352,Wunderground v.1.15,2013-04-21 14:35:00,
2013-04-21 10:37:00,30.5,23.5,30.66,NE,40,0.0,8.0,75,0.00,,,0.00,346,Wunderground v.1.15,2013-04-21 14:37:00,
2013-04-21 10:38:00,30.5,23.5,30.66,NE,40,0.0,8.0,75,0.00,,,0.00,371,Wunderground v.1.15,2013-04-21 14:38:00,
2013-04-21 10:42:00,30.8,23.8,30.65,NNE,13,0.0,8.0,75,0.00,,,0.00,422,Wunderground v.1.15,2013-04-21 14:42:00,
2013-04-21 10:43:00,30.9,23.9,30.66,North,5,0.0,8.0,75,0.00,,,0.00,439,Wunderground v.1.15,2013-04-21 14:43:00,
2013-04-21 10:44:00,30.9,23.6,30.65,North,9,0.0,8.0,74,0.00,,,0.00,352,Wunderground v.1.15,2013-04-21 14:44:00,
2013-04-21 10:45:00,31.0,23.7,30.66,North,9,0.0,8.0,74,0.00,,,0.00,357,Wunderground v.1.15,2013-04-21 14:45:00,
2013-04-21 10:50:00,31.2,23.9,30.66,ENE,57,0.0,8.0,74,0.00,,,0.00,406,Wunderground v.1.15,2013-04-21 14:50:00,
2013-04-21 10:53:00,31.5,24.2,30.66,North,10,0.0,8.0,74,0.00,,,0.00,510,Wunderground v.1.15,2013-04-21 14:53:00,
2013-04-21 10:55:00,31.7,24.0,30.65,NNE,15,0.0,8.0,73,0.00,,,0.00,441,Wunderground v.1.15,2013-04-21 14:55:00,
2013-04-21 10:56:00,31.8,24.1,30.65,NNE,14,0.0,8.0,73,0.00,,,0.00,485,Wunderground v.1.15,2013-04-21 14:56:00,
2013-04-21 10:58:00,31.9,23.9,30.65,North,11,0.0,8.0,72,0.00,,,0.00,640,Wunderground v.1.15,2013-04-21 14:58:00,
2013-04-21 10:59:00,32.0,24.0,30.65,North,10,0.0,8.0,72,0.00,,,0.00,640,Wunderground v.1.15,2013-04-21 14:59:00,
2013-04-21 11:02:00,32.1,24.1,30.66,North,10,1.0,8.0,72,0.00,,,0.00,418,Wunderground v.1.15,2013-04-21 15:02:00,
2013-04-21 11:03:00,32.2,23.8,30.66,North,10,1.0,8.0,71,0.00,,,0.00,418,Wunderground v.1.15,2013-04-21 15:03:00,
2013-04-21 11:05:00,32.3,23.9,30.66,North,9,1.0,8.0,71,0.00,,,0.00,431,Wunderground v.1.15,2013-04-21 15:05:00,
2013-04-21 11:08:00,32.5,23.8,30.66,East,86,1.0,8.0,70,0.00,,,0.00,540,Wunderground v.1.15,2013-04-21 15:08:00,
2013-04-21 11:09:00,32.5,23.8,30.66,East,80,1.0,8.0,70,0.00,,,0.00,548,Wunderground v.1.15,2013-04-21 15:09:00,
2013-04-21 11:10:00,32.5,23.5,30.66,ENE,59,0.0,8.0,69,0.00,,,0.00,543,Wunderground v.1.15,2013-04-21 15:10:00,
2013-04-21 11:12:00,32.6,23.6,30.66,North,5,0.0,8.0,69,0.00,,,0.00,559,Wunderground v.1.15,2013-04-21 15:12:00,
2013-04-21 11:15:00,32.6,23.6,30.66,NNE,28,1.0,8.0,69,0.00,,,0.00,555,Wunderground v.1.15,2013-04-21 15:15:00,
2013-04-21 11:16:00,32.6,23.6,30.66,ENE,63,1.0,8.0,69,0.00,,,0.00,520,Wunderground v.1.15,2013-04-21 15:16:00,
2013-04-21 11:17:00,32.7,23.6,30.66,North,360,1.0,8.0,69,0.00,,,0.00,499,Wunderground v.1.15,2013-04-21 15:17:00,
2013-04-21 11:18:00,32.8,23.7,30.66,NE,52,1.0,8.0,69,0.00,,,0.00,548,Wunderground v.1.15,2013-04-21 15:18:00,
2013-04-21 11:19:00,32.8,23.7,30.66,North,5,1.0,8.0,69,0.00,,,0.00,617,Wunderground v.1.15,2013-04-21 15:19:00,
2013-04-21 11:22:00,33.0,23.6,30.66,North,9,1.0,8.0,68,0.00,,,0.00,598,Wunderground v.1.15,2013-04-21 15:22:00,
2013-04-21 11:24:00,33.1,23.3,30.66,NNW,337,1.0,8.0,67,0.00,,,0.00,673,Wunderground v.1.15,2013-04-21 15:24:00,
2013-04-21 11:25:00,33.2,23.4,30.66,NNW,338,1.0,8.0,67,0.00,,,0.00,664,Wunderground v.1.15,2013-04-21 15:25:00,
2013-04-21 11:26:00,33.2,23.4,30.66,NNW,338,1.0,8.0,67,0.00,,,0.00,708,Wunderground v.1.15,2013-04-21 15:26:00,
2013-04-21 11:27:00,33.3,23.5,30.66,NNW,340,1.0,8.0,67,0.00,,,0.00,671,Wunderground v.1.15,2013-04-21 15:27:00,
2013-04-21 11:31:00,33.5,23.7,30.65,SE,145,0.0,8.0,67,0.00,,,0.00,606,Wunderground v.1.15,2013-04-21 15:31:00,
2013-04-21 11:32:00,33.7,24.3,30.65,NNE,16,0.0,8.0,68,0.00,,,0.00,613,Wunderground v.1.15,2013-04-21 15:32:00,
2013-04-21 11:33:00,33.8,24.4,30.66,NW,313,0.0,8.0,68,0.00,,,0.00,606,Wunderground v.1.15,2013-04-21 15:33:00,
2013-04-21 11:35:00,33.9,23.0,30.65,North,355,0.0,8.0,64,0.00,,,0.00,598,Wunderground v.1.15,2013-04-21 15:35:00,
2013-04-21 11:38:00,33.9,22.6,30.65,NNE,15,0.0,8.0,63,0.00,,,0.00,582,Wunderground v.1.15,2013-04-21 15:38:00,
2013-04-21 11:39:00,34.0,22.7,30.65,North,355,0.0,8.0,63,0.00,,,0.00,596,Wunderground v.1.15,2013-04-21 15:39:00,
2013-04-21 11:41:00,34.0,22.0,30.65,NNE,28,0.0,8.0,61,0.00,,,0.00,650,Wunderground v.1.15,2013-04-21 15:41:00,
2013-04-21 11:42:00,34.0,22.0,30.65,North,9,0.0,8.0,61,0.00,,,0.00,703,Wunderground v.1.15,2013-04-21 15:42:00,
2013-04-21 11:44:00,34.1,22.4,30.65,North,11,0.0,8.0,62,0.00,,,0.00,675,Wunderground v.1.15,2013-04-21 15:44:00,
2013-04-21 11:45:00,34.2,22.5,30.65,NNE,17,0.0,8.0,62,0.00,,,0.00,679,Wunderground v.1.15,2013-04-21 15:45:00,
2013-04-21 11:47:00,34.2,21.7,30.65,NNW,348,0.0,8.0,60,0.00,,,0.00,670,Wunderground v.1.15,2013-04-21 15:47:00,
2013-04-21 11:51:00,34.4,21.9,30.65,NNW,331,0.0,8.0,60,0.00,,,0.00,638,Wunderground v.1.15,2013-04-21 15:51:00,
2013-04-21 11:52:00,34.4,21.9,30.65,NNW,348,0.0,8.0,60,0.00,,,0.00,668,Wunderground v.1.15,2013-04-21 15:52:00,
2013-04-21 11:53:00,34.4,21.1,30.65,NNE,32,0.0,8.0,58,0.00,,,0.00,696,Wunderground v.1.15,2013-04-21 15:53:00,
2013-04-21 11:54:00,34.4,21.1,30.65,NNW,337,1.0,8.0,58,0.00,,,0.00,693,Wunderground v.1.15,2013-04-21 15:54:00,
2013-04-21 11:56:00,34.5,21.6,30.65,North,360,1.0,8.0,59,0.00,,,0.00,659,Wunderground v.1.15,2013-04-21 15:56:00,
2013-04-21 11:59:00,34.6,21.3,30.65,East,85,1.0,8.0,58,0.00,,,0.00,661,Wunderground v.1.15,2013-04-21 15:59:00,
2013-04-21 12:00:00,34.6,21.3,30.65,North,349,1.0,8.0,58,0.00,,,0.00,671,Wunderground v.1.15,2013-04-21 16:00:00,
2013-04-21 12:01:00,34.7,21.8,30.65,North,350,1.0,8.0,59,0.00,,,0.00,724,Wunderground v.1.15,2013-04-21 16:01:00,
2013-04-21 12:06:00,35.0,22.1,30.65,ENE,57,2.0,8.0,59,0.00,,,0.00,786,Wunderground v.1.15,2013-04-21 16:06:00,
2013-04-21 12:09:00,35.3,22.8,30.65,WSW,240,2.0,8.0,60,0.00,,,0.00,802,Wunderground v.1.15,2013-04-21 16:09:00,
2013-04-21 12:11:00,35.5,22.6,30.65,North,355,1.0,8.0,59,0.00,,,0.00,796,Wunderground v.1.15,2013-04-21 16:11:00,
2013-04-21 12:12:00,35.6,22.7,30.65,North,360,1.0,8.0,59,0.00,,,0.00,798,Wunderground v.1.15,2013-04-21 16:12:00,
2013-04-21 12:14:00,35.9,23.0,30.65,NNE,19,1.0,8.0,59,0.00,,,0.00,793,Wunderground v.1.15,2013-04-21 16:14:00,
2013-04-21 12:15:00,36.0,23.0,30.65,North,11,1.0,8.0,59,0.00,,,0.00,798,Wunderground v.1.15,2013-04-21 16:15:00,
2013-04-21 12:17:00,36.1,22.7,30.65,NNE,20,1.0,8.0,58,0.00,,,0.00,789,Wunderground v.1.15,2013-04-21 16:17:00,
2013-04-21 12:20:00,36.4,23.0,30.64,North,360,1.0,8.0,58,0.00,,,0.00,777,Wunderground v.1.15,2013-04-21 16:20:00,
2013-04-21 12:22:00,36.6,22.8,30.64,NNE,17,1.0,8.0,57,0.00,,,0.00,777,Wunderground v.1.15,2013-04-21 16:22:00,
2013-04-21 12:23:00,36.6,23.2,30.64,North,351,1.0,8.0,58,0.00,,,0.00,786,Wunderground v.1.15,2013-04-21 16:23:00,
2013-04-21 12:27:00,36.7,23.7,30.64,NE,34,1.0,8.0,59,0.00,,,0.00,795,Wunderground v.1.15,2013-04-21 16:27:00,
2013-04-21 12:29:00,36.8,23.8,30.64,North,360,1.0,8.0,59,0.00,,,0.00,780,Wunderground v.1.15,2013-04-21 16:29:00,
2013-04-21 12:31:00,36.9,23.5,30.64,North,355,1.0,8.0,58,0.00,,,0.00,763,Wunderground v.1.15,2013-04-21 16:31:00,
2013-04-21 12:32:00,37.0,24.4,30.64,North,355,1.0,8.0,60,0.00,,,0.00,789,Wunderground v.1.15,2013-04-21 16:32:00,
2013-04-21 12:33:00,37.1,24.1,30.64,NNE,22,1.0,8.0,59,0.00,,,0.00,779,Wunderground v.1.15,2013-04-21 16:33:00,
2013-04-21 12:37:00,37.2,23.8,30.64,North,355,1.0,8.0,58,0.00,,,0.00,775,Wunderground v.1.15,2013-04-21 16:37:00,
2013-04-21 12:39:00,37.3,23.9,30.64,NNE,20,1.0,8.0,58,0.00,,,0.00,763,Wunderground v.1.15,2013-04-21 16:39:00,
2013-04-21 12:40:00,37.4,24.0,30.64,NNE,13,1.0,8.0,58,0.00,,,0.00,758,Wunderground v.1.15,2013-04-21 16:40:00,
2013-04-21 12:43:00,37.6,24.6,30.64,North,5,0.0,8.0,59,0.00,,,0.00,708,Wunderground v.1.15,2013-04-21 16:43:00,
2013-04-21 12:44:00,37.7,24.2,30.64,NNE,24,0.0,8.0,58,0.00,,,0.00,698,Wunderground v.1.15,2013-04-21 16:44:00,
2013-04-21 12:48:00,37.7,23.8,30.63,NNE,32,1.0,8.0,57,0.00,,,0.00,635,Wunderground v.1.15,2013-04-21 16:48:00,
2013-04-21 12:50:00,37.5,23.6,30.63,NNE,18,2.0,2.0,57,0.00,,,0.00,626,Wunderground v.1.15,2013-04-21 16:50:00,
2013-04-21 12:51:00,37.5,23.6,30.63,NNE,19,2.0,8.0,57,0.00,,,0.00,631,Wunderground v.1.15,2013-04-21 16:51:00,
2013-04-21 12:54:00,37.5,23.6,30.63,North,360,2.0,8.0,57,0.00,,,0.00,659,Wunderground v.1.15,2013-04-21 16:54:00,
2013-04-21 12:55:00,37.5,23.6,30.63,NNE,28,2.0,8.0,57,0.00,,,0.00,671,Wunderground v.1.15,2013-04-21 16:55:00,
2013-04-21 12:56:00,37.4,23.5,30.63,North,360,2.0,8.0,57,0.00,,,0.00,680,Wunderground v.1.15,2013-04-21 16:56:00,
2013-04-21 12:57:00,37.5,23.6,30.63,ENE,74,2.0,8.0,57,0.00,,,0.00,693,Wunderground v.1.15,2013-04-21 16:57:00,
2013-04-21 13:01:00,37.7,24.2,30.63,NNE,23,2.0,8.0,58,0.00,,,0.00,722,Wunderground v.1.15,2013-04-21 17:01:00,
2013-04-21 13:02:00,37.8,24.7,30.63,NE,50,2.0,8.0,59,0.00,,,0.00,717,Wunderground v.1.15,2013-04-21 17:02:00,
2013-04-21 13:03:00,37.9,24.4,30.63,NNE,12,1.0,8.0,58,0.00,,,0.00,694,Wunderground v.1.15,2013-04-21 17:03:00,
2013-04-21 13:04:00,37.9,24.0,30.63,North,360,1.0,8.0,57,0.00,,,0.00,670,Wunderground v.1.15,2013-04-21 17:04:00,
2013-04-21 13:07:00,38.1,23.8,30.63,North,355,1.0,8.0,56,0.00,,,0.00,654,Wunderground v.1.15,2013-04-21 17:07:00,
2013-04-21 13:09:00,38.1,23.8,30.63,North,10,1.0,8.0,56,0.00,,,0.00,687,Wunderground v.1.15,2013-04-21 17:09:00,
2013-04-21 13:11:00,38.2,23.9,30.63,North,355,1.0,8.0,56,0.00,,,0.00,694,Wunderground v.1.15,2013-04-21 17:11:00,
2013-04-21 13:13:00,38.1,23.3,30.63,SE,142,2.0,8.0,55,0.00,,,0.00,687,Wunderground v.1.15,2013-04-21 17:13:00,
2013-04-21 13:16:00,38.2,23.9,30.63,North,349,2.0,8.0,56,0.00,,,0.00,661,Wunderground v.1.15,2013-04-21 17:16:00,
2013-04-21 13:18:00,38.3,24.0,30.63,NNE,26,2.0,8.0,56,0.00,,,0.00,659,Wunderground v.1.15,2013-04-21 17:18:00,
2013-04-21 13:19:00,38.4,24.1,30.63,North,9,2.0,8.0,56,0.00,,,0.00,675,Wunderground v.1.15,2013-04-21 17:19:00,
2013-04-21 13:21:00,38.5,24.1,30.63,North,355,2.0,8.0,56,0.00,,,0.00,726,Wunderground v.1.15,2013-04-21 17:21:00,
2013-04-21 13:23:00,38.7,23.9,30.62,East,82,2.0,8.0,55,0.00,,,0.00,763,Wunderground v.1.15,2013-04-21 17:23:00,
2013-04-21 13:25:00,38.7,23.5,30.62,North,355,2.0,8.0,54,0.00,,,0.00,779,Wunderground v.1.15,2013-04-21 17:25:00,
2013-04-21 13:27:00,38.8,23.6,30.62,North,5,2.0,8.0,54,0.00,,,0.00,780,Wunderground v.1.15,2013-04-21 17:27:00,
2013-04-21 13:29:00,38.9,22.8,30.62,NNE,24,3.0,9.0,52,0.00,,,0.00,795,Wunderground v.1.15,2013-04-21 17:29:00,
2013-04-21 13:31:00,39.0,23.3,30.62,NNW,338,3.0,8.0,53,0.00,,,0.00,809,Wunderground v.1.15,2013-04-21 17:31:00,
2013-04-21 13:32:00,39.0,22.8,30.62,NE,52,3.0,8.0,52,0.00,,,0.00,795,Wunderground v.1.15,2013-04-21 17:32:00,
2013-04-21 13:33:00,39.1,22.5,30.62,North,350,3.0,8.0,51,0.00,,,0.00,786,Wunderground v.1.15,2013-04-21 17:33:00,
2013-04-21 13:36:00,39.1,22.9,30.62,North,360,3.0,8.0,52,0.00,,,0.00,689,Wunderground v.1.15,2013-04-21 17:36:00,
2013-04-21 13:38:00,39.1,22.0,30.62,North,355,3.0,8.0,50,0.00,,,0.00,694,Wunderground v.1.15,2013-04-21 17:38:00,
2013-04-21 13:39:00,39.0,22.4,30.62,NNW,342,2.0,8.0,51,0.00,,,0.00,726,Wunderground v.1.15,2013-04-21 17:39:00,
2013-04-21 13:43:00,39.2,22.6,30.62,NNE,28,2.0,8.0,51,0.00,,,0.00,740,Wunderground v.1.15,2013-04-21 17:43:00,
2013-04-21 13:48:00,39.2,22.6,30.61,North,5,2.0,8.0,51,0.00,,,0.00,744,Wunderground v.1.15,2013-04-21 17:48:00,
2013-04-21 13:49:00,39.2,22.6,30.61,North,355,3.0,8.0,51,0.00,,,0.00,742,Wunderground v.1.15,2013-04-21 17:49:00,
2013-04-21 13:50:00,39.2,22.6,30.61,East,96,3.0,3.0,51,0.00,,,0.00,742,Wunderground v.1.15,2013-04-21 17:50:00,
2013-04-21 13:51:00,39.2,23.0,30.61,North,350,3.0,8.0,52,0.00,,,0.00,749,Wunderground v.1.15,2013-04-21 17:51:00,
2013-04-21 13:55:00,39.5,23.8,30.61,North,349,3.0,8.0,53,0.00,,,0.00,758,Wunderground v.1.15,2013-04-21 17:55:00,
2013-04-21 13:56:00,39.6,23.9,30.61,NNE,21,3.0,8.0,53,0.00,,,0.00,759,Wunderground v.1.15,2013-04-21 17:56:00,
2013-04-21 13:57:00,39.7,24.0,30.61,North,351,2.0,8.0,53,0.00,,,0.00,737,Wunderground v.1.15,2013-04-21 17:57:00,
2013-04-21 13:58:00,39.8,23.6,30.61,East,88,2.0,8.0,52,0.00,,,0.00,737,Wunderground v.1.15,2013-04-21 17:58:00,
2013-04-21 14:03:00,40.2,24.0,30.61,North,355,1.0,8.0,52,0.00,,,0.00,693,Wunderground v.1.15,2013-04-21 18:03:00,
2013-04-21 14:04:00,40.2,23.5,30.61,NNW,338,1.0,8.0,51,0.00,,,0.00,691,Wunderground v.1.15,2013-04-21 18:04:00,
2013-04-21 14:05:00,40.2,23.5,30.61,NE,42,1.0,8.0,51,0.00,,,0.00,700,Wunderground v.1.15,2013-04-21 18:05:00,
2013-04-21 14:08:00,40.2,23.5,30.60,East,84,1.0,8.0,51,0.00,,,0.00,719,Wunderground v.1.15,2013-04-21 18:08:00,
2013-04-21 14:09:00,40.1,23.4,30.60,ENE,69,1.0,8.0,51,0.00,,,0.00,703,Wunderground v.1.15,2013-04-21 18:09:00,
2013-04-21 14:10:00,40.2,23.0,30.60,North,355,2.0,2.0,50,0.00,,,0.00,728,Wunderground v.1.15,2013-04-21 18:10:00,
2013-04-21 14:12:00,40.2,23.0,30.60,North,355,2.0,8.0,50,0.00,,,0.00,759,Wunderground v.1.15,2013-04-21 18:12:00,
2013-04-21 14:13:00,40.2,23.0,30.60,NNW,340,2.0,8.0,50,0.00,,,0.00,729,Wunderground v.1.15,2013-04-21 18:13:00,
2013-04-21 14:16:00,40.3,23.1,30.60,NNW,336,1.0,8.0,50,0.00,,,0.00,680,Wunderground v.1.15,2013-04-21 18:16:00,
2013-04-21 14:17:00,40.4,23.2,30.60,NNE,13,1.0,8.0,50,0.00,,,0.00,649,Wunderground v.1.15,2013-04-21 18:17:00,
2013-04-21 14:18:00,40.4,22.7,30.60,North,5,1.0,8.0,49,0.00,,,0.00,624,Wunderground v.1.15,2013-04-21 18:18:00,
2013-04-21 14:19:00,40.4,22.7,30.60,North,5,1.0,8.0,49,0.00,,,0.00,624,Wunderground v.1.15,2013-04-21 18:19:00,
2013-04-21 14:20:00,40.4,22.2,30.60,North,5,1.0,8.0,48,0.00,,,0.00,633,Wunderground v.1.15,2013-04-21 18:20:00,
2013-04-21 14:22:00,40.3,21.6,30.60,North,5,1.0,8.0,47,0.00,,,0.00,585,Wunderground v.1.15,2013-04-21 18:22:00,
2013-04-21 14:24:00,40.2,21.6,30.60,NNE,15,2.0,8.0,47,0.00,,,0.00,548,Wunderground v.1.15,2013-04-21 18:24:00,
2013-04-21 14:25:00,40.2,22.1,30.60,North,5,2.0,8.0,48,0.00,,,0.00,534,Wunderground v.1.15,2013-04-21 18:25:00,
2013-04-21 14:30:00,39.9,21.8,30.60,ENE,65,2.0,2.0,48,0.00,,,0.00,580,Wunderground v.1.15,2013-04-21 18:30:00,
2013-04-21 14:32:00,39.8,21.2,30.60,North,5,2.0,8.0,47,0.00,,,0.00,577,Wunderground v.1.15,2013-04-21 18:32:00,
2013-04-21 14:36:00,39.6,21.0,30.60,NNE,32,2.0,8.0,47,0.00,,,0.00,780,Wunderground v.1.15,2013-04-21 18:36:00,
2013-04-21 14:38:00,39.6,21.5,30.59,ENE,73,2.0,8.0,48,0.00,,,0.00,798,Wunderground v.1.15,2013-04-21 18:38:00,
2013-04-21 14:39:00,39.6,22.0,30.60,North,349,2.0,8.0,49,0.00,,,0.00,777,Wunderground v.1.15,2013-04-21 18:39:00,
2013-04-21 14:41:00,39.7,22.1,30.59,NE,42,2.0,8.0,49,0.00,,,0.00,789,Wunderground v.1.15,2013-04-21 18:41:00,
2013-04-21 14:42:00,39.8,22.7,30.59,North,360,2.0,8.0,50,0.00,,,0.00,805,Wunderground v.1.15,2013-04-21 18:42:00,
2013-04-21 14:44:00,40.0,22.8,30.59,ESE,102,2.0,8.0,50,0.00,,,0.00,807,Wunderground v.1.15,2013-04-21 18:44:00,
2013-04-21 14:46:00,40.3,23.1,30.59,North,5,1.0,8.0,50,0.00,,,0.00,795,Wunderground v.1.15,2013-04-21 18:46:00,
2013-04-21 14:47:00,40.4,22.7,30.59,North,355,1.0,8.0,49,0.00,,,0.00,788,Wunderground v.1.15,2013-04-21 18:47:00,
2013-04-21 14:48:00,40.4,22.7,30.59,NE,34,1.0,8.0,49,0.00,,,0.00,788,Wunderground v.1.15,2013-04-21 18:48:00,
2013-04-21 14:53:00,40.6,21.9,30.59,NE,36,2.0,8.0,47,0.00,,,0.00,777,Wunderground v.1.15,2013-04-21 18:53:00,
2013-04-21 14:54:00,40.6,21.9,30.59,NE,41,2.0,8.0,47,0.00,,,0.00,772,Wunderground v.1.15,2013-04-21 18:54:00,
2013-04-21 14:56:00,40.6,22.4,30.59,North,355,2.0,8.0,48,0.00,,,0.00,766,Wunderground v.1.15,2013-04-21 18:56:00,
2013-04-21 14:58:00,40.8,22.6,30.59,WNW,300,2.0,8.0,48,0.00,,,0.00,724,Wunderground v.1.15,2013-04-21 18:58:00,
2013-04-21 14:59:00,40.8,21.6,30.59,North,11,1.0,8.0,46,0.00,,,0.00,715,Wunderground v.1.15,2013-04-21 18:59:00,
2013-04-21 15:02:00,41.0,22.8,30.59,NNE,28,1.0,8.0,48,0.00,,,0.00,761,Wunderground v.1.15,2013-04-21 19:02:00,
2013-04-21 15:05:00,41.3,22.1,30.59,North,360,0.0,8.0,46,0.00,,,0.00,745,Wunderground v.1.15,2013-04-21 19:05:00,
2013-04-21 15:06:00,41.4,21.6,30.58,North,11,1.0,8.0,45,0.00,,,0.00,705,Wunderground v.1.15,2013-04-21 19:06:00,
2013-04-21 15:08:00,41.4,22.1,30.58,ENE,71,1.0,8.0,46,0.00,,,0.00,680,Wunderground v.1.15,2013-04-21 19:08:00,
2013-04-21 15:09:00,41.4,21.1,30.58,North,5,1.0,8.0,44,0.00,,,0.00,680,Wunderground v.1.15,2013-04-21 19:09:00,
2013-04-21 15:11:00,41.3,19.9,30.58,North,360,1.0,8.0,42,0.00,,,0.00,707,Wunderground v.1.15,2013-04-21 19:11:00,
2013-04-21 15:13:00,41.1,20.3,30.58,NNE,15,1.0,8.0,43,0.00,,,0.00,700,Wunderground v.1.15,2013-04-21 19:13:00,
2013-04-21 15:14:00,41.1,21.3,30.58,NNE,15,1.0,8.0,45,0.00,,,0.00,703,Wunderground v.1.15,2013-04-21 19:14:00,
2013-04-21 15:15:00,41.2,21.4,30.58,NW,311,1.0,8.0,45,0.00,,,0.00,668,Wunderground v.1.15,2013-04-21 19:15:00,
2013-04-21 15:18:00,41.4,20.5,30.58,NNW,336,1.0,8.0,43,0.00,,,0.00,738,Wunderground v.1.15,2013-04-21 19:18:00,
2013-04-21 15:19:00,41.4,20.5,30.58,NNE,25,1.0,8.0,43,0.00,,,0.00,707,Wunderground v.1.15,2013-04-21 19:19:00,
2013-04-21 15:20:00,41.4,20.0,30.58,North,360,2.0,2.0,42,0.00,,,0.00,707,Wunderground v.1.15,2013-04-21 19:20:00,
2013-04-21 15:24:00,41.2,19.8,30.58,ENE,71,1.0,8.0,42,0.00,,,0.00,731,Wunderground v.1.15,2013-04-21 19:24:00,
2013-04-21 15:25:00,41.2,19.2,30.58,North,5,1.0,8.0,41,0.00,,,0.00,751,Wunderground v.1.15,2013-04-21 19:25:00,
2013-04-21 15:27:00,41.2,20.4,30.58,North,360,1.0,8.0,43,0.00,,,0.00,682,Wunderground v.1.15,2013-04-21 19:27:00,
2013-04-21 15:30:00,41.3,19.9,30.58,North,5,2.0,8.0,42,0.00,,,0.00,712,Wunderground v.1.15,2013-04-21 19:30:00,
2013-04-21 15:31:00,41.3,19.3,30.58,NNW,345,1.0,8.0,41,0.00,,,0.00,721,Wunderground v.1.15,2013-04-21 19:31:00,
2013-04-21 15:33:00,41.3,19.9,30.58,North,9,2.0,8.0,42,0.00,,,0.00,729,Wunderground v.1.15,2013-04-21 19:33:00,
2013-04-21 15:38:00,41.3,18.8,30.57,East,84,2.0,8.0,40,0.00,,,0.00,649,Wunderground v.1.15,2013-04-21 19:38:00,
2013-04-21 15:39:00,41.4,19.4,30.57,North,5,1.0,8.0,41,0.00,,,0.00,550,Wunderground v.1.15,2013-04-21 19:39:00,
2013-04-21 15:40:00,41.4,19.4,30.57,NE,38,1.0,1.0,41,0.00,,,0.00,550,Wunderground v.1.15,2013-04-21 19:40:00,
2013-04-21 15:42:00,41.5,19.5,30.57,North,351,1.0,8.0,41,0.00,,,0.00,677,Wunderground v.1.15,2013-04-21 19:42:00,
2013-04-21 15:46:00,41.7,20.8,30.57,North,5,1.0,8.0,43,0.00,,,0.00,712,Wunderground v.1.15,2013-04-21 19:46:00,
2013-04-21 15:48:00,41.8,22.0,30.57,NW,309,1.0,8.0,45,0.00,,,0.00,714,Wunderground v.1.15,2013-04-21 19:48:00,
2013-04-21 15:50:00,42.1,22.3,30.57,ENE,63,1.0,8.0,45,0.00,,,0.00,686,Wunderground v.1.15,2013-04-21 19:50:00,
2013-04-21 15:53:00,42.3,20.8,30.57,North,360,1.0,8.0,42,0.00,,,0.00,700,Wunderground v.1.15,2013-04-21 19:53:00,
2013-04-21 15:54:00,42.3,20.8,30.57,North,355,1.0,8.0,42,0.00,,,0.00,710,Wunderground v.1.15,2013-04-21 19:54:00,
2013-04-21 15:55:00,42.4,20.3,30.57,North,360,1.0,8.0,41,0.00,,,0.00,640,Wunderground v.1.15,2013-04-21 19:55:00,
2013-04-21 15:57:00,42.3,20.2,30.57,NNE,15,1.0,8.0,41,0.00,,,0.00,650,Wunderground v.1.15,2013-04-21 19:57:00,
2013-04-21 15:58:00,42.3,20.2,30.57,North,355,1.0,8.0,41,0.00,,,0.00,606,Wunderground v.1.15,2013-04-21 19:58:00,
2013-04-21 16:03:00,41.9,19.9,30.56,NE,36,2.0,8.0,41,0.00,,,0.00,471,Wunderground v.1.15,2013-04-21 20:03:00,
2013-04-21 16:04:00,41.8,19.8,30.56,NNE,15,2.0,8.0,41,0.00,,,0.00,501,Wunderground v.1.15,2013-04-21 20:04:00,
2013-04-21 16:05:00,41.7,19.7,30.56,NNW,348,2.0,8.0,41,0.00,,,0.00,471,Wunderground v.1.15,2013-04-21 20:05:00,
2013-04-21 16:06:00,41.7,19.1,30.56,NE,44,2.0,8.0,40,0.00,,,0.00,464,Wunderground v.1.15,2013-04-21 20:06:00,
2013-04-21 16:09:00,41.5,20.6,30.55,North,355,2.0,8.0,43,0.00,,,0.00,457,Wunderground v.1.15,2013-04-21 20:09:00,
2013-04-21 16:10:00,41.5,20.6,30.55,NNE,14,1.0,1.0,43,0.00,,,0.00,550,Wunderground v.1.15,2013-04-21 20:10:00,
2013-04-21 16:15:00,41.6,20.2,30.55,North,360,2.0,8.0,42,0.00,,,0.00,174,Wunderground v.1.15,2013-04-21 20:15:00,
2013-04-21 16:16:00,41.6,20.2,30.55,North,5,2.0,8.0,42,0.00,,,0.00,155,Wunderground v.1.15,2013-04-21 20:16:00,
2013-04-21 16:17:00,41.6,20.2,30.55,NNE,13,2.0,8.0,42,0.00,,,0.00,155,Wunderground v.1.15,2013-04-21 20:17:00,
2013-04-21 16:18:00,41.7,19.7,30.55,East,85,2.0,8.0,41,0.00,,,0.00,134,Wunderground v.1.15,2013-04-21 20:18:00,
2013-04-21 16:19:00,41.6,19.6,30.55,NNW,339,2.0,8.0,41,0.00,,,0.00,123,Wunderground v.1.15,2013-04-21 20:19:00,
2013-04-21 16:24:00,41.6,19.6,30.55,SE,128,2.0,8.0,41,0.00,,,0.00,188,Wunderground v.1.15,2013-04-21 20:24:00,
2013-04-21 16:25:00,41.5,20.1,30.55,North,355,2.0,8.0,42,0.00,,,0.00,188,Wunderground v.1.15,2013-04-21 20:25:00,
2013-04-21 16:26:00,41.5,20.1,30.55,North,355,3.0,8.0,42,0.00,,,0.00,188,Wunderground v.1.15,2013-04-21 20:26:00,
2013-04-21 16:30:00,41.4,20.5,30.55,North,5,3.0,3.0,43,0.00,,,0.00,376,Wunderground v.1.15,2013-04-21 20:30:00,
2013-04-21 16:34:00,41.5,21.2,30.55,NNW,329,2.0,8.0,44,0.00,,,0.00,327,Wunderground v.1.15,2013-04-21 20:34:00,
2013-04-21 16:35:00,41.5,21.7,30.54,NNE,22,2.0,8.0,45,0.00,,,0.00,292,Wunderground v.1.15,2013-04-21 20:35:00,
2013-04-21 16:39:00,41.6,21.3,30.54,North,11,1.0,8.0,44,0.00,,,0.00,346,Wunderground v.1.15,2013-04-21 20:39:00,
2013-04-21 16:40:00,41.6,20.7,30.54,NNE,15,1.0,1.0,43,0.00,,,0.00,346,Wunderground v.1.15,2013-04-21 20:40:00,
2013-04-21 16:44:00,41.9,22.6,30.54,ENE,64,1.0,8.0,46,0.00,,,0.00,246,Wunderground v.1.15,2013-04-21 20:44:00,
2013-04-21 16:46:00,42.0,21.6,30.54,North,360,1.0,8.0,44,0.00,,,0.00,260,Wunderground v.1.15,2013-04-21 20:46:00,
2013-04-21 16:50:00,42.2,21.8,30.53,NE,42,1.0,1.0,44,0.00,,,0.00,476,Wunderground v.1.15,2013-04-21 20:50:00,
2013-04-21 16:52:00,42.2,20.7,30.53,NNW,348,1.0,8.0,42,0.00,,,0.00,475,Wunderground v.1.15,2013-04-21 20:52:00,
2013-04-21 16:55:00,42.3,21.9,30.53,SE,136,1.0,8.0,44,0.00,,,0.00,452,Wunderground v.1.15,2013-04-21 20:55:00,
2013-04-21 16:56:00,42.3,20.8,30.53,NNE,28,1.0,8.0,42,0.00,,,0.00,480,Wunderground v.1.15,2013-04-21 20:56:00,
2013-04-21 16:57:00,42.3,20.2,30.53,ENE,75,1.0,8.0,41,0.00,,,0.00,480,Wunderground v.1.15,2013-04-21 20:57:00,
2013-04-21 17:02:00,42.2,20.2,30.53,NE,41,1.0,8.0,41,0.00,,,0.00,480,Wunderground v.1.15,2013-04-21 21:02:00,
2013-04-21 17:04:00,42.2,19.0,30.52,NE,47,2.0,8.0,39,0.00,,,0.00,475,Wunderground v.1.15,2013-04-21 21:04:00,
2013-04-21 17:06:00,42.2,18.4,30.52,NNW,331,2.0,8.0,38,0.00,,,0.00,450,Wunderground v.1.15,2013-04-21 21:06:00,
2013-04-21 17:09:00,42.2,19.0,30.52,NNW,339,2.0,8.0,39,0.00,,,0.00,394,Wunderground v.1.15,2013-04-21 21:09:00,
2013-04-21 17:10:00,42.1,18.9,30.52,North,360,2.0,8.0,39,0.00,,,0.00,385,Wunderground v.1.15,2013-04-21 21:10:00,
2013-04-21 17:11:00,42.1,18.9,30.52,NNE,32,2.0,8.0,39,0.00,,,0.00,392,Wunderground v.1.15,2013-04-21 21:11:00,
2013-04-21 17:12:00,42.0,18.8,30.52,NNW,344,2.0,8.0,39,0.00,,,0.00,390,Wunderground v.1.15,2013-04-21 21:12:00,
2013-04-21 17:17:00,41.8,19.2,30.52,North,360,2.0,8.0,40,0.00,,,0.00,396,Wunderground v.1.15,2013-04-21 21:17:00,
2013-04-21 17:19:00,41.7,20.3,30.52,North,355,2.0,8.0,42,0.00,,,0.00,417,Wunderground v.1.15,2013-04-21 21:19:00,
2013-04-21 17:23:00,41.8,20.4,30.51,North,10,2.0,8.0,42,0.00,,,0.00,387,Wunderground v.1.15,2013-04-21 21:23:00,
2013-04-21 17:25:00,41.8,20.4,30.51,NNE,24,2.0,8.0,42,0.00,,,0.00,374,Wunderground v.1.15,2013-04-21 21:25:00,
2013-04-21 17:26:00,41.8,20.4,30.51,NNW,342,2.0,8.0,42,0.00,,,0.00,359,Wunderground v.1.15,2013-04-21 21:26:00,
2013-04-21 17:28:00,41.9,20.4,30.51,North,5,2.0,8.0,42,0.00,,,0.00,352,Wunderground v.1.15,2013-04-21 21:28:00,
2013-04-21 17:30:00,41.8,20.9,30.51,North,11,2.0,8.0,43,0.00,,,0.00,322,Wunderground v.1.15,2013-04-21 21:30:00,
2013-04-21 17:34:00,41.6,21.8,30.51,North,5,2.0,8.0,45,0.00,,,0.00,318,Wunderground v.1.15,2013-04-21 21:34:00,
2013-04-21 17:35:00,41.6,21.8,30.51,ESE,116,2.0,8.0,45,0.00,,,0.00,320,Wunderground v.1.15,2013-04-21 21:35:00,
2013-04-21 17:38:00,41.5,22.2,30.51,North,360,2.0,8.0,46,0.00,,,0.00,316,Wunderground v.1.15,2013-04-21 21:38:00,
2013-04-21 17:40:00,41.4,21.6,30.51,North,355,2.0,8.0,45,0.00,,,0.00,339,Wunderground v.1.15,2013-04-21 21:40:00,
2013-04-21 17:41:00,41.4,21.1,30.51,North,360,2.0,8.0,44,0.00,,,0.00,318,Wunderground v.1.15,2013-04-21 21:41:00,
2013-04-21 17:44:00,41.3,21.5,30.50,NNE,15,2.0,8.0,45,0.00,,,0.00,373,Wunderground v.1.15,2013-04-21 21:44:00,
2013-04-21 17:45:00,41.3,21.0,30.50,NNE,26,2.0,8.0,44,0.00,,,0.00,248,Wunderground v.1.15,2013-04-21 21:45:00,
2013-04-21 17:46:00,41.3,21.0,30.50,North,9,2.0,8.0,44,0.00,,,0.00,248,Wunderground v.1.15,2013-04-21 21:46:00,
2013-04-21 17:49:00,41.1,21.9,30.50,North,5,3.0,8.0,46,0.00,,,0.00,374,Wunderground v.1.15,2013-04-21 21:49:00,
2013-04-21 17:50:00,41.1,21.9,30.50,North,360,3.0,3.0,46,0.00,,,0.00,345,Wunderground v.1.15,2013-04-21 21:50:00,
2013-04-21 17:52:00,41.1,21.9,30.51,North,355,2.0,7.0,46,0.00,,,0.00,345,Wunderground v.1.15,2013-04-21 21:52:00,
2013-04-21 17:56:00,41.0,22.3,30.50,NNE,20,2.0,8.0,47,0.00,,,0.00,343,Wunderground v.1.15,2013-04-21 21:56:00,
2013-04-21 17:57:00,41.0,22.3,30.50,North,11,2.0,8.0,47,0.00,,,0.00,304,Wunderground v.1.15,2013-04-21 21:57:00,
2013-04-21 17:58:00,40.9,22.2,30.51,ENE,63,2.0,8.0,47,0.00,,,0.00,309,Wunderground v.1.15,2013-04-21 21:58:00,
2013-04-21 17:59:00,40.9,22.7,30.50,North,355,2.0,8.0,48,0.00,,,0.00,315,Wunderground v.1.15,2013-04-21 21:59:00,
2013-04-21 18:00:00,40.9,22.7,30.51,NE,38,2.0,2.0,48,0.00,,,0.00,299,Wunderground v.1.15,2013-04-21 22:00:00,
2013-04-21 18:03:00,40.7,22.5,30.50,North,355,2.0,11.0,48,0.00,,,0.00,248,Wunderground v.1.15,2013-04-21 22:03:00,
2013-04-21 18:06:00,40.6,22.9,30.50,North,5,2.0,11.0,49,0.00,,,0.00,332,Wunderground v.1.15,2013-04-21 22:06:00,
2013-04-21 18:09:00,40.4,22.7,30.50,NE,48,3.0,11.0,49,0.00,,,0.00,359,Wunderground v.1.15,2013-04-21 22:09:00,
2013-04-21 18:10:00,40.4,23.2,30.50,NNE,18,3.0,3.0,50,0.00,,,0.00,339,Wunderground v.1.15,2013-04-21 22:10:00,
2013-04-21 18:11:00,40.3,23.1,30.50,NE,52,3.0,8.0,50,0.00,,,0.00,334,Wunderground v.1.15,2013-04-21 22:11:00,
2013-04-21 18:12:00,40.3,23.1,30.50,NE,52,3.0,8.0,50,0.00,,,0.00,243,Wunderground v.1.15,2013-04-21 22:12:00,
2013-04-21 18:15:00,40.3,22.6,30.50,North,355,3.0,8.0,49,0.00,,,0.00,327,Wunderground v.1.15,2013-04-21 22:15:00,
2013-04-21 18:17:00,40.2,23.0,30.50,North,5,4.0,8.0,50,0.00,,,0.00,301,Wunderground v.1.15,2013-04-21 22:17:00,
2013-04-21 18:19:00,40.2,23.0,30.50,North,351,3.0,8.0,50,0.00,,,0.00,295,Wunderground v.1.15,2013-04-21 22:19:00,
2013-04-21 18:20:00,40.2,23.5,30.49,North,360,3.0,3.0,51,0.00,,,0.00,283,Wunderground v.1.15,2013-04-21 22:20:00,
2013-04-21 18:21:00,40.2,23.0,30.49,North,5,3.0,8.0,50,0.00,,,0.00,278,Wunderground v.1.15,2013-04-21 22:21:00,
2013-04-21 18:24:00,40.1,23.4,30.49,North,360,3.0,8.0,51,0.00,,,0.00,267,Wunderground v.1.15,2013-04-21 22:24:00,
2013-04-21 18:26:00,39.9,23.2,30.50,West,270,3.0,8.0,51,0.00,,,0.00,264,Wunderground v.1.15,2013-04-21 22:26:00,
2013-04-21 18:27:00,39.8,23.1,30.50,North,360,3.0,8.0,51,0.00,,,0.00,264,Wunderground v.1.15,2013-04-21 22:27:00,
2013-04-21 18:30:00,39.6,23.4,30.50,NNW,340,3.0,3.0,52,0.00,,,0.00,197,Wunderground v.1.15,2013-04-21 22:30:00,
2013-04-21 18:32:00,39.5,23.8,30.49,North,10,3.0,8.0,53,0.00,,,0.00,243,Wunderground v.1.15,2013-04-21 22:32:00,
2013-04-21 18:36:00,39.3,24.5,30.50,NNE,26,2.0,8.0,55,0.00,,,0.00,230,Wunderground v.1.15,2013-04-21 22:36:00,
2013-04-21 18:37:00,39.3,24.0,30.50,North,360,2.0,8.0,54,0.00,,,0.00,216,Wunderground v.1.15,2013-04-21 22:37:00,
2013-04-21 18:38:00,39.3,24.5,30.50,North,349,2.0,8.0,55,0.00,,,0.00,218,Wunderground v.1.15,2013-04-21 22:38:00,
2013-04-21 18:41:00,39.1,24.3,30.50,ENE,65,3.0,8.0,55,0.00,,,0.00,209,Wunderground v.1.15,2013-04-21 22:41:00,
2013-04-21 18:42:00,39.1,24.3,30.50,North,5,3.0,8.0,55,0.00,,,0.00,209,Wunderground v.1.15,2013-04-21 22:42:00,
2013-04-21 18:43:00,39.0,24.6,30.50,North,355,3.0,8.0,56,0.00,,,0.00,202,Wunderground v.1.15,2013-04-21 22:43:00,
2013-04-21 18:44:00,38.9,24.5,30.49,NNW,341,3.0,8.0,56,0.00,,,0.00,197,Wunderground v.1.15,2013-04-21 22:44:00,
2013-04-21 18:49:00,38.8,25.3,30.50,North,11,3.0,8.0,58,0.00,,,0.00,181,Wunderground v.1.15,2013-04-21 22:49:00,
2013-04-21 18:51:00,38.7,25.2,30.50,NNE,14,3.0,8.0,58,0.00,,,0.00,167,Wunderground v.1.15,2013-04-21 22:51:00,
2013-04-21 18:53:00,38.7,25.6,30.50,North,5,3.0,8.0,59,0.00,,,0.00,163,Wunderground v.1.15,2013-04-21 22:53:00,
2013-04-21 18:54:00,38.6,25.1,30.50,North,350,3.0,8.0,58,0.00,,,0.00,163,Wunderground v.1.15,2013-04-21 22:54:00,
2013-04-21 18:55:00,38.6,25.1,30.50,North,11,3.0,8.0,58,0.00,,,0.00,139,Wunderground v.1.15,2013-04-21 22:55:00,
2013-04-21 18:59:00,38.5,25.4,30.50,NNE,12,3.0,8.0,59,0.00,,,0.00,146,Wunderground v.1.15,2013-04-21 22:59:00,
2013-04-21 19:00:00,38.5,25.4,30.50,NNE,31,3.0,3.0,59,0.00,,,0.00,144,Wunderground v.1.15,2013-04-21 23:00:00,
2013-04-21 19:01:00,38.4,25.3,30.50,WNW,302,3.0,8.0,59,0.00,,,0.00,141,Wunderground v.1.15,2013-04-21 23:01:00,
2013-04-21 19:04:00,38.3,25.2,30.49,NNE,21,2.0,8.0,59,0.00,,,0.00,125,Wunderground v.1.15,2013-04-21 23:04:00,
2013-04-21 19:06:00,38.2,25.1,30.49,NW,325,3.0,8.0,59,0.00,,,0.00,123,Wunderground v.1.15,2013-04-21 23:06:00,
2013-04-21 19:09:00,38.1,25.0,30.49,NNE,17,3.0,8.0,59,0.00,,,0.00,116,Wunderground v.1.15,2013-04-21 23:09:00,
2013-04-21 19:10:00,38.0,24.9,30.49,North,355,3.0,8.0,59,0.00,,,0.00,113,Wunderground v.1.15,2013-04-21 23:10:00,
2013-04-21 19:12:00,37.9,25.2,30.49,NNE,13,3.0,8.0,60,0.00,,,0.00,93,Wunderground v.1.15,2013-04-21 23:12:00,
2013-04-21 19:14:00,37.9,25.2,30.49,NE,44,4.0,8.0,60,0.00,,,0.00,95,Wunderground v.1.15,2013-04-21 23:14:00,
2013-04-21 19:16:00,37.8,25.1,30.49,NNW,340,4.0,8.0,60,0.00,,,0.00,84,Wunderground v.1.15,2013-04-21 23:16:00,
2013-04-21 19:18:00,37.7,25.1,30.49,North,350,4.0,8.0,60,0.00,,,0.00,90,Wunderground v.1.15,2013-04-21 23:18:00,
2013-04-21 19:20:00,37.5,25.3,30.49,North,355,4.0,8.0,61,0.00,,,0.00,86,Wunderground v.1.15,2013-04-21 23:20:00,
2013-04-21 19:22:00,37.5,25.3,30.49,NE,52,4.0,8.0,61,0.00,,,0.00,79,Wunderground v.1.15,2013-04-21 23:22:00,
2013-04-21 19:26:00,37.3,25.8,30.49,NNW,347,3.0,8.0,63,0.00,,,0.00,42,Wunderground v.1.15,2013-04-21 23:26:00,
2013-04-21 19:27:00,37.3,25.8,30.49,North,5,3.0,8.0,63,0.00,,,0.00,65,Wunderground v.1.15,2013-04-21 23:27:00,
2013-04-21 19:28:00,37.3,25.8,30.49,North,355,3.0,10.0,63,0.00,,,0.00,62,Wunderground v.1.15,2013-04-21 23:28:00,
2013-04-21 19:29:00,37.3,26.2,30.48,North,360,3.0,10.0,64,0.00,,,0.00,58,Wunderground v.1.15,2013-04-21 23:29:00,
2013-04-21 19:32:00,37.1,26.0,30.48,NNE,29,3.0,8.0,64,0.00,,,0.00,46,Wunderground v.1.15,2013-04-21 23:32:00,
2013-04-21 19:34:00,37.1,26.4,30.48,NNE,15,3.0,8.0,65,0.00,,,0.00,44,Wunderground v.1.15,2013-04-21 23:34:00,
2013-04-21 19:35:00,37.0,26.3,30.48,ENE,76,4.0,8.0,65,0.00,,,0.00,47,Wunderground v.1.15,2013-04-21 23:35:00,
2013-04-21 19:36:00,37.0,26.7,30.48,NNW,343,4.0,8.0,66,0.00,,,0.00,42,Wunderground v.1.15,2013-04-21 23:36:00,
2013-04-21 19:38:00,36.9,26.6,30.48,North,360,4.0,8.0,66,0.00,,,0.00,35,Wunderground v.1.15,2013-04-21 23:38:00,
2013-04-21 19:39:00,36.8,26.5,30.48,North,355,3.0,8.0,66,0.00,,,0.00,33,Wunderground v.1.15,2013-04-21 23:39:00,
2013-04-21 19:45:00,36.5,26.9,30.48,North,10,4.0,8.0,68,0.00,,,0.00,19,Wunderground v.1.15,2013-04-21 23:45:00,
2013-04-21 19:46:00,36.5,26.9,30.48,North,355,4.0,8.0,68,0.00,,,0.00,19,Wunderground v.1.15,2013-04-21 23:46:00,
2013-04-21 19:47:00,36.4,26.8,30.48,North,349,4.0,8.0,68,0.00,,,0.00,19,Wunderground v.1.15,2013-04-21 23:47:00,
2013-04-21 19:48:00,36.3,27.1,30.48,North,355,4.0,8.0,69,0.00,,,0.00,18,Wunderground v.1.15,2013-04-21 23:48:00,
2013-04-21 19:49:00,36.3,27.1,30.48,North,355,4.0,8.0,69,0.00,,,0.00,18,Wunderground v.1.15,2013-04-21 23:49:00,
2013-04-21 19:52:00,36.1,26.9,30.48,NNE,19,4.0,8.0,69,0.00,,,0.00,18,Wunderground v.1.15,2013-04-21 23:52:00,
2013-04-21 19:53:00,36.1,26.9,30.48,North,360,4.0,8.0,69,0.00,,,0.00,18,Wunderground v.1.15,2013-04-21 23:53:00,
2013-04-21 19:57:00,35.9,27.1,30.48,NNE,16,4.0,8.0,70,0.00,,,0.00,16,Wunderground v.1.15,2013-04-21 23:57:00,
2013-04-21 19:59:00,35.9,27.1,30.48,NE,38,3.0,8.0,70,0.00,,,0.00,16,Wunderground v.1.15,2013-04-21 23:59:00,
2013-04-21 20:00:00,35.8,27.3,30.48,North,360,3.0,3.0,71,0.00,,,0.00,16,Wunderground v.1.15,2013-04-22 00:00:00,
2013-04-21 20:02:00,35.8,27.3,30.48,NW,319,3.0,8.0,71,0.00,,,0.00,16,Wunderground v.1.15,2013-04-22 00:02:00,
2013-04-21 20:04:00,35.7,27.2,30.48,North,355,2.0,8.0,71,0.00,,,0.00,16,Wunderground v.1.15,2013-04-22 00:04:00,
2013-04-21 20:05:00,35.7,27.2,30.48,NNW,339,2.0,8.0,71,0.00,,,0.00,16,Wunderground v.1.15,2013-04-22 00:05:00,
2013-04-21 20:06:00,35.7,27.2,30.48,NNE,24,2.0,8.0,71,0.00,,,0.00,16,Wunderground v.1.15,2013-04-22 00:06:00,
2013-04-21 20:07:00,35.6,27.1,30.48,North,355,2.0,8.0,71,0.00,,,0.00,16,Wunderground v.1.15,2013-04-22 00:07:00,
2013-04-21 20:11:00,35.5,27.4,30.49,North,355,2.0,8.0,72,0.00,,,0.00,14,Wunderground v.1.15,2013-04-22 00:11:00,
2013-04-21 20:13:00,35.5,27.4,30.48,North,355,2.0,8.0,72,0.00,,,0.00,12,Wunderground v.1.15,2013-04-22 00:13:00,
2013-04-21 20:14:00,35.5,27.4,30.48,NNE,23,2.0,8.0,72,0.00,,,0.00,11,Wunderground v.1.15,2013-04-22 00:14:00,
2013-04-21 20:17:00,35.4,27.3,30.48,NNE,22,2.0,8.0,72,0.00,,,0.00,9,Wunderground v.1.15,2013-04-22 00:17:00,
2013-04-21 20:18:00,35.4,27.6,30.48,North,355,2.0,8.0,73,0.00,,,0.00,9,Wunderground v.1.15,2013-04-22 00:18:00,
2013-04-21 20:20:00,35.3,27.5,30.48,NNE,19,2.0,8.0,73,0.00,,,0.00,7,Wunderground v.1.15,2013-04-22 00:20:00,
2013-04-21 20:23:00,35.2,27.4,30.48,NNE,15,3.0,8.0,73,0.00,,,0.00,5,Wunderground v.1.15,2013-04-22 00:23:00,
2013-04-21 20:24:00,35.2,27.4,30.48,NNE,20,3.0,8.0,73,0.00,,,0.00,0,Wunderground v.1.15,2013-04-22 00:24:00,
2013-04-21 20:25:00,35.2,27.4,30.48,North,360,3.0,8.0,73,0.00,,,0.00,0,Wunderground v.1.15,2013-04-22 00:25:00,
2013-04-21 20:26:00,35.2,27.4,30.48,North,5,4.0,8.0,73,0.00,,,0.00,0,Wunderground v.1.15,2013-04-22 00:26:00,
2013-04-21 20:31:00,35.1,27.3,30.48,North,9,3.0,8.0,73,0.00,,,0.00,0,Wunderground v.1.15,2013-04-22 00:31:00,
2013-04-21 20:32:00,35.0,27.2,30.48,North,355,3.0,8.0,73,0.00,,,0.00,0,Wunderground v.1.15,2013-04-22 00:32:00,
2013-04-21 20:33:00,35.0,27.5,30.48,NNE,28,3.0,8.0,74,0.00,,,0.00,0,Wunderground v.1.15,2013-04-22 00:33:00,
2013-04-21 20:34:00,35.0,27.5,30.48,NNW,329,3.0,8.0,74,0.00,,,0.00,0,Wunderground v.1.15,2013-04-22 00:34:00,
2013-04-21 20:38:00,35.0,27.5,30.48,North,355,3.0,8.0,74,0.00,,,0.00,0,Wunderground v.1.15,2013-04-22 00:38:00,
2013-04-21 20:39:00,35.0,27.5,30.48,North,5,4.0,8.0,74,0.00,,,0.00,0,Wunderground v.1.15,2013-04-22 00:39:00,
2013-04-21 20:42:00,34.9,27.5,30.48,North,11,4.0,9.0,74,0.00,,,0.00,0,Wunderground v.1.15,2013-04-22 00:42:00,
2013-04-21 20:44:00,34.9,27.5,30.48,North,349,5.0,9.0,74,0.00,,,0.00,0,Wunderground v.1.15,2013-04-22 00:44:00,
2013-04-21 20:46:00,34.9,27.5,30.48,NNW,348,5.0,9.0,74,0.00,,,0.00,0,Wunderground v.1.15,2013-04-22 00:46:00,
2013-04-21 20:47:00,34.8,27.4,30.48,NNW,344,5.0,9.0,74,0.00,,,0.00,0,Wunderground v.1.15,2013-04-22 00:47:00,
2013-04-21 20:50:00,34.8,27.4,30.48,ENE,77,4.0,4.0,74,0.00,,,0.00,0,Wunderground v.1.15,2013-04-22 00:50:00,
2013-04-21 20:52:00,34.8,27.4,30.48,North,349,4.0,8.0,74,0.00,,,0.00,0,Wunderground v.1.15,2013-04-22 00:52:00,
2013-04-21 20:53:00,34.8,27.4,30.48,North,355,4.0,8.0,74,0.00,,,0.00,0,Wunderground v.1.15,2013-04-22 00:53:00,
2013-04-21 20:54:00,34.8,27.4,30.48,North,5,4.0,8.0,74,0.00,,,0.00,0,Wunderground v.1.15,2013-04-22 00:54:00,
2013-04-21 20:56:00,34.8,27.4,30.48,NNE,30,4.0,8.0,74,0.00,,,0.00,0,Wunderground v.1.15,2013-04-22 00:56:00,
2013-04-21 20:58:00,34.8,27.4,30.48,North,9,3.0,8.0,74,0.00,,,0.00,0,Wunderground v.1.15,2013-04-22 00:58:00,
2013-04-21 20:59:00,34.7,27.3,30.48,NNE,26,3.0,8.0,74,0.00,,,0.00,0,Wunderground v.1.15,2013-04-22 00:59:00,
2013-04-21 21:02:00,34.7,27.3,30.48,WNW,284,3.0,8.0,74,0.00,,,0.00,0,Wunderground v.1.15,2013-04-22 01:02:00,
2013-04-21 21:04:00,34.7,27.3,30.47,North,5,3.0,8.0,74,0.00,,,0.00,0,Wunderground v.1.15,2013-04-22 01:04:00,
2013-04-21 21:06:00,34.7,27.3,30.47,NNE,12,3.0,8.0,74,0.00,,,0.00,0,Wunderground v.1.15,2013-04-22 01:06:00,
2013-04-21 21:10:00,34.6,27.2,30.48,NNW,348,5.0,5.0,74,0.00,,,0.00,0,Wunderground v.1.15,2013-04-22 01:10:00,
2013-04-21 21:11:00,34.6,27.2,30.47,North,355,4.0,8.0,74,0.00,,,0.00,0,Wunderground v.1.15,2013-04-22 01:11:00,
2013-04-21 21:13:00,34.6,27.2,30.48,North,360,4.0,8.0,74,0.00,,,0.00,0,Wunderground v.1.15,2013-04-22 01:13:00,
2013-04-21 21:14:00,34.6,27.2,30.48,NNW,327,4.0,8.0,74,0.00,,,0.00,0,Wunderground v.1.15,2013-04-22 01:14:00,
2013-04-21 21:15:00,34.6,27.2,30.48,North,5,4.0,8.0,74,0.00,,,0.00,0,Wunderground v.1.15,2013-04-22 01:15:00,
2013-04-21 21:17:00,34.6,27.5,30.48,North,11,4.0,8.0,75,0.00,,,0.00,0,Wunderground v.1.15,2013-04-22 01:17:00,
2013-04-21 21:20:00,34.6,27.5,30.48,North,11,3.0,8.0,75,0.00,,,0.00,0,Wunderground v.1.15,2013-04-22 01:20:00,
2013-04-21 21:23:00,34.6,27.5,30.47,NE,55,4.0,8.0,75,0.00,,,0.00,0,Wunderground v.1.15,2013-04-22 01:23:00,
2013-04-21 21:24:00,34.6,27.5,30.48,North,360,4.0,8.0,75,0.00,,,0.00,0,Wunderground v.1.15,2013-04-22 01:24:00,
2013-04-21 21:25:00,34.6,27.5,30.48,NNE,17,4.0,8.0,75,0.00,,,0.00,0,Wunderground v.1.15,2013-04-22 01:25:00,
2013-04-21 21:27:00,34.6,27.5,30.47,North,355,4.0,8.0,75,0.00,,,0.00,0,Wunderground v.1.15,2013-04-22 01:27:00,
2013-04-21 21:29:00,34.5,27.7,30.48,NE,34,4.0,8.0,76,0.00,,,0.00,0,Wunderground v.1.15,2013-04-22 01:29:00,
2013-04-21 21:31:00,34.5,27.7,30.48,NNE,17,3.0,8.0,76,0.00,,,0.00,0,Wunderground v.1.15,2013-04-22 01:31:00,
2013-04-21 21:33:00,34.5,27.7,30.48,North,360,3.0,8.0,76,0.00,,,0.00,0,Wunderground v.1.15,2013-04-22 01:33:00,
2013-04-21 21:36:00,34.4,27.9,30.48,North,5,4.0,8.0,77,0.00,,,0.00,0,Wunderground v.1.15,2013-04-22 01:36:00,
2013-04-21 21:37:00,34.4,27.9,30.47,North,9,3.0,8.0,77,0.00,,,0.00,0,Wunderground v.1.15,2013-04-22 01:37:00,
2013-04-21 21:40:00,34.4,27.9,30.47,North,355,4.0,8.0,77,0.00,,,0.00,0,Wunderground v.1.15,2013-04-22 01:40:00,
2013-04-21 21:42:00,34.4,27.9,30.47,North,360,4.0,8.0,77,0.00,,,0.00,0,Wunderground v.1.15,2013-04-22 01:42:00,
2013-04-21 21:43:00,34.3,27.8,30.47,North,5,3.0,8.0,77,0.00,,,0.00,0,Wunderground v.1.15,2013-04-22 01:43:00,
2013-04-21 21:44:00,34.4,28.2,30.47,North,355,3.0,8.0,78,0.00,,,0.00,0,Wunderground v.1.15,2013-04-22 01:44:00,
2013-04-21 21:47:00,34.3,28.2,30.47,NNE,24,3.0,8.0,78,0.00,,,0.00,0,Wunderground v.1.15,2013-04-22 01:47:00,
2013-04-21 21:49:00,34.4,28.2,30.47,North,360,3.0,8.0,78,0.00,,,0.00,0,Wunderground v.1.15,2013-04-22 01:49:00,
2013-04-21 21:52:00,34.3,28.2,30.47,North,11,3.0,10.0,78,0.00,,,0.00,0,Wunderground v.1.15,2013-04-22 01:52:00,
2013-04-21 21:53:00,34.3,28.5,30.47,NNE,26,3.0,10.0,79,0.00,,,0.00,0,Wunderground v.1.15,2013-04-22 01:53:00,
2013-04-21 21:54:00,34.3,28.5,30.47,North,360,4.0,10.0,79,0.00,,,0.00,0,Wunderground v.1.15,2013-04-22 01:54:00,
2013-04-21 21:56:00,34.3,28.5,30.47,NNW,344,4.0,10.0,79,0.00,,,0.00,0,Wunderground v.1.15,2013-04-22 01:56:00,
2013-04-21 21:58:00,34.3,28.5,30.47,NNE,25,4.0,10.0,79,0.00,,,0.00,0,Wunderground v.1.15,2013-04-22 01:58:00,
2013-04-21 22:00:00,34.3,28.5,30.47,NNW,346,4.0,4.0,79,0.00,,,0.00,0,Wunderground v.1.15,2013-04-22 02:00:00,
2013-04-21 22:01:00,34.3,28.5,30.47,NNE,25,4.0,8.0,79,0.00,,,0.00,0,Wunderground v.1.15,2013-04-22 02:01:00,
2013-04-21 22:07:00,34.3,28.8,30.47,North,360,3.0,8.0,80,0.00,,,0.00,0,Wunderground v.1.15,2013-04-22 02:07:00,
2013-04-21 22:08:00,34.3,28.8,30.47,NNW,346,3.0,8.0,80,0.00,,,0.00,0,Wunderground v.1.15,2013-04-22 02:08:00,
2013-04-21 22:10:00,34.3,28.8,30.47,North,9,3.0,8.0,80,0.00,,,0.00,0,Wunderground v.1.15,2013-04-22 02:10:00,
2013-04-21 22:13:00,34.2,28.7,30.47,NE,54,4.0,8.0,80,0.00,,,0.00,0,Wunderground v.1.15,2013-04-22 02:13:00,
2013-04-21 22:14:00,34.2,29.0,30.47,North,5,4.0,8.0,81,0.00,,,0.00,0,Wunderground v.1.15,2013-04-22 02:14:00,
2013-04-21 22:16:00,34.2,29.0,30.47,ENE,69,4.0,8.0,81,0.00,,,0.00,0,Wunderground v.1.15,2013-04-22 02:16:00,
2013-04-21 22:18:00,34.2,29.0,30.46,ENE,66,4.0,8.0,81,0.00,,,0.00,0,Wunderground v.1.15,2013-04-22 02:18:00,
2013-04-21 22:19:00,34.3,29.1,30.47,North,5,3.0,8.0,81,0.00,,,0.00,0,Wunderground v.1.15,2013-04-22 02:19:00,
2013-04-21 22:23:00,34.2,29.0,30.46,North,360,2.0,8.0,81,0.00,,,0.00,0,Wunderground v.1.15,2013-04-22 02:23:00,
2013-04-21 22:26:00,34.3,29.1,30.46,North,5,2.0,8.0,81,0.00,,,0.00,0,Wunderground v.1.15,2013-04-22 02:26:00,
2013-04-21 22:30:00,34.3,29.1,30.46,NNE,13,2.0,8.0,81,0.00,,,0.00,0,Wunderground v.1.15,2013-04-22 02:30:00,
2013-04-21 22:31:00,34.3,29.1,30.46,NNE,15,2.0,8.0,81,0.00,,,0.00,0,Wunderground v.1.15,2013-04-22 02:31:00,
2013-04-21 22:33:00,34.3,29.1,30.46,NNE,12,2.0,8.0,81,0.00,,,0.00,0,Wunderground v.1.15,2013-04-22 02:33:00,
2013-04-21 22:34:00,34.3,29.1,30.46,North,360,2.0,8.0,81,0.00,,,0.00,0,Wunderground v.1.15,2013-04-22 02:34:00,
2013-04-21 22:38:00,34.3,29.1,30.46,North,355,2.0,9.0,81,0.00,,,0.00,0,Wunderground v.1.15,2013-04-22 02:38:00,
2013-04-21 22:40:00,34.3,29.1,30.46,North,9,2.0,8.0,81,0.00,,,0.00,0,Wunderground v.1.15,2013-04-22 02:40:00,
2013-04-21 22:42:00,34.3,29.1,30.46,NNE,26,2.0,8.0,81,0.00,,,0.00,0,Wunderground v.1.15,2013-04-22 02:42:00,
2013-04-21 22:43:00,34.3,29.1,30.46,North,5,2.0,8.0,81,0.00,,,0.00,0,Wunderground v.1.15,2013-04-22 02:43:00,
2013-04-21 22:46:00,34.3,29.1,30.46,NNE,16,2.0,8.0,81,0.00,,,0.00,0,Wunderground v.1.15,2013-04-22 02:46:00,
2013-04-21 22:49:00,34.3,29.1,30.46,North,360,2.0,8.0,81,0.00,,,0.00,0,Wunderground v.1.15,2013-04-22 02:49:00,
2013-04-21 22:50:00,34.2,29.0,30.46,NNE,22,3.0,8.0,81,0.00,,,0.00,0,Wunderground v.1.15,2013-04-22 02:50:00,
2013-04-21 22:51:00,34.2,29.0,30.46,North,360,3.0,8.0,81,0.00,,,0.00,0,Wunderground v.1.15,2013-04-22 02:51:00,
2013-04-21 22:54:00,34.2,29.0,30.45,NNW,348,3.0,8.0,81,0.00,,,0.00,0,Wunderground v.1.15,2013-04-22 02:54:00,
2013-04-21 22:55:00,34.2,29.0,30.45,NE,38,3.0,8.0,81,0.00,,,0.00,0,Wunderground v.1.15,2013-04-22 02:55:00,
2013-04-21 22:59:00,34.2,29.0,30.45,North,5,3.0,8.0,81,0.00,,,0.00,0,Wunderground v.1.15,2013-04-22 02:59:00,
2013-04-21 23:02:00,34.2,29.0,30.45,NW,310,3.0,8.0,81,0.00,,,0.00,0,Wunderground v.1.15,2013-04-22 03:02:00,
2013-04-21 23:04:00,34.2,29.0,30.45,NNW,348,3.0,8.0,81,0.00,,,0.00,0,Wunderground v.1.15,2013-04-22 03:04:00,
2013-04-21 23:05:00,34.2,29.0,30.45,NNW,336,3.0,8.0,81,0.00,,,0.00,0,Wunderground v.1.15,2013-04-22 03:05:00,
2013-04-21 23:08:00,34.2,29.0,30.45,NNE,13,3.0,8.0,81,0.00,,,0.00,0,Wunderground v.1.15,2013-04-22 03:08:00,
2013-04-21 23:09:00,34.2,29.0,30.45,North,355,3.0,8.0,81,0.00,,,0.00,0,Wunderground v.1.15,2013-04-22 03:09:00,
2013-04-21 23:10:00,34.2,29.0,30.45,NNW,340,3.0,3.0,81,0.00,,,0.00,0,Wunderground v.1.15,2013-04-22 03:10:00,
2013-04-21 23:12:00,34.2,29.0,30.45,North,355,3.0,8.0,81,0.00,,,0.00,0,Wunderground v.1.15,2013-04-22 03:12:00,
2013-04-21 23:13:00,34.2,29.0,30.45,North,11,3.0,8.0,81,0.00,,,0.00,0,Wunderground v.1.15,2013-04-22 03:13:00,
2013-04-21 23:17:00,34.2,29.0,30.44,North,355,3.0,8.0,81,0.00,,,0.00,0,Wunderground v.1.15,2013-04-22 03:17:00,
2013-04-21 23:18:00,34.2,29.0,30.45,East,88,3.0,8.0,81,0.00,,,0.00,0,Wunderground v.1.15,2013-04-22 03:18:00,
2013-04-21 23:21:00,34.2,29.0,30.44,North,5,3.0,8.0,81,0.00,,,0.00,0,Wunderground v.1.15,2013-04-22 03:21:00,
2013-04-21 23:23:00,34.2,29.0,30.44,NNW,333,3.0,8.0,81,0.00,,,0.00,0,Wunderground v.1.15,2013-04-22 03:23:00,
2013-04-21 23:25:00,34.2,29.0,30.44,North,5,3.0,8.0,81,0.00,,,0.00,0,Wunderground v.1.15,2013-04-22 03:25:00,
2013-04-21 23:26:00,34.2,29.0,30.44,North,360,4.0,8.0,81,0.00,,,0.00,0,Wunderground v.1.15,2013-04-22 03:26:00,
2013-04-21 23:28:00,34.2,28.7,30.44,North,5,3.0,8.0,80,0.00,,,0.00,0,Wunderground v.1.15,2013-04-22 03:28:00,
2013-04-21 23:30:00,34.2,29.0,30.44,North,355,3.0,8.0,81,0.00,,,0.00,0,Wunderground v.1.15,2013-04-22 03:30:00,
2013-04-21 23:31:00,34.2,29.0,30.44,North,9,3.0,8.0,81,0.00,,,0.00,0,Wunderground v.1.15,2013-04-22 03:31:00,
2013-04-21 23:32:00,34.2,29.0,30.44,North,351,3.0,8.0,81,0.00,,,0.00,0,Wunderground v.1.15,2013-04-22 03:32:00,
2013-04-21 23:37:00,34.2,29.0,30.44,NE,35,3.0,8.0,81,0.00,,,0.00,0,Wunderground v.1.15,2013-04-22 03:37:00,
2013-04-21 23:38:00,34.2,29.0,30.44,NE,47,3.0,8.0,81,0.00,,,0.00,0,Wunderground v.1.15,2013-04-22 03:38:00,
2013-04-21 23:39:00,34.2,29.0,30.44,NNW,345,3.0,8.0,81,0.00,,,0.00,0,Wunderground v.1.15,2013-04-22 03:39:00,
2013-04-21 23:41:00,34.2,29.0,30.43,NNW,344,3.0,7.0,81,0.00,,,0.00,0,Wunderground v.1.15,2013-04-22 03:41:00,
2013-04-21 23:44:00,34.3,29.1,30.44,NE,40,3.0,8.0,81,0.00,,,0.00,0,Wunderground v.1.15,2013-04-22 03:44:00,
2013-04-21 23:45:00,34.3,29.1,30.43,ESE,115,3.0,8.0,81,0.00,,,0.00,0,Wunderground v.1.15,2013-04-22 03:45:00,
2013-04-21 23:48:00,34.3,29.1,30.43,NNW,329,3.0,8.0,81,0.00,,,0.00,0,Wunderground v.1.15,2013-04-22 03:48:00,
2013-04-21 23:49:00,34.3,29.1,30.43,North,5,3.0,8.0,81,0.00,,,0.00,0,Wunderground v.1.15,2013-04-22 03:49:00,
2013-04-21 23:50:00,34.3,29.1,30.43,NNE,19,3.0,3.0,81,0.00,,,0.00,0,Wunderground v.1.15,2013-04-22 03:50:00,
2013-04-21 23:52:00,34.3,29.1,30.44,NNW,346,3.0,8.0,81,0.00,,,0.00,0,Wunderground v.1.15,2013-04-22 03:52:00,
2013-04-21 23:56:00,34.3,29.1,30.44,NE,46,3.0,8.0,81,0.00,,,0.00,0,Wunderground v.1.15,2013-04-22 03:56:00,
2013-04-21 23:57:00,34.4,29.2,30.44,North,5,3.0,8.0,81,0.00,,,0.00,0,Wunderground v.1.15,2013-04-22 03:57:00,
2013-04-21 23:59:00,34.4,29.2,30.44,North,349,3.0,8.0,81,0.00,,,0.00,0,Wunderground v.1.15,2013-04-22 03:59:00,